<?xml version="1.0" encoding="UTF-8" standalone="no" ?>
<gpx xmlns="http://www.topografix.com/GPX/1/1" xmlns:xsi="http://www.w3.org/2001/XMLSchema-instance" xsi:schemaLocation="http://www.topografix.com/GPX/1/1 http://www.topografix.com/GPX/1/1/gpx.xsd" version="1.1" creator="VisuGPX - https://www.visugpx.com">
  <metadata>
    <name>Roche du Guet, Tapin, Tormery</name>
    <desc><![CDATA[En boucle depuis Montmélian]]></desc>
  </metadata>
  <trk>
    <name><![CDATA[bauges - Montmélian]]></name>
    <desc><![CDATA[<h1>OruxMaps</h1><br /><hr align="center" width="480" style="height: 2px; width: 517px"/><h2>Nom: bauges - Montmélian</h2><br /><p>Temps de départ: 04/13/2014 10:35</p><p>Temps d'arrivée: 04/13/2014 16:27</p><p>Distance: 13,9km (05:51)</p><p>Temps déplacement: 03:53</p><p>Vitesse moyenne: 2,4km/h</p><p>Vitesse moyenne: 3,6km/h</p><p>Vitess Max.: 8,2km/h</p><p>Altitude minimale: 281m</p><p>Altitude maximale: 1204m</p><p>Vitesse d'élévation: 394,7m/h</p><p>Vitesse de descente: -426,3m/h</p><p>Gain Altitude: 1162m</p><p>Perte Altitude: -1166m</p><p>Temps d'élévation: 02:56</p><p>Temps de descente: 02:44</p><hr align="center" width="480" style="height: 2px; width: 517px"/>]]></desc>
    <trkseg>
      <trkpt lat="45.50464" lon="6.05176">
        <ele>290.48</ele>
        <time>2014-04-13T08:35:53Z</time>
      </trkpt>
      <trkpt lat="45.50466" lon="6.0515">
        <ele>286.51</ele>
        <time>2014-04-13T08:36:57Z</time>
      </trkpt>
      <trkpt lat="45.50483" lon="6.05137">
        <ele>281.7</ele>
        <time>2014-04-13T08:37:16Z</time>
      </trkpt>
      <trkpt lat="45.505" lon="6.0513">
        <ele>285.99</ele>
        <time>2014-04-13T08:37:39Z</time>
      </trkpt>
      <trkpt lat="45.50519" lon="6.05127">
        <ele>283.07</ele>
        <time>2014-04-13T08:38:06Z</time>
      </trkpt>
      <trkpt lat="45.50537" lon="6.05123">
        <ele>282.82</ele>
        <time>2014-04-13T08:38:30Z</time>
      </trkpt>
      <trkpt lat="45.50556" lon="6.05124">
        <ele>287.24</ele>
        <time>2014-04-13T08:38:49Z</time>
      </trkpt>
      <trkpt lat="45.50573" lon="6.05135">
        <ele>291.56</ele>
        <time>2014-04-13T08:39:06Z</time>
      </trkpt>
      <trkpt lat="45.50589" lon="6.05145">
        <ele>296.38</ele>
        <time>2014-04-13T08:39:27Z</time>
      </trkpt>
      <trkpt lat="45.50605" lon="6.05159">
        <ele>301.03</ele>
        <time>2014-04-13T08:39:52Z</time>
      </trkpt>
      <trkpt lat="45.50618" lon="6.05179">
        <ele>304.89</ele>
        <time>2014-04-13T08:40:21Z</time>
      </trkpt>
      <trkpt lat="45.50628" lon="6.05201">
        <ele>312.02</ele>
        <time>2014-04-13T08:40:50Z</time>
      </trkpt>
      <trkpt lat="45.50637" lon="6.05223">
        <ele>313.39</ele>
        <time>2014-04-13T08:41:21Z</time>
      </trkpt>
      <trkpt lat="45.50647" lon="6.05249">
        <ele>324.18</ele>
        <time>2014-04-13T08:41:46Z</time>
      </trkpt>
      <trkpt lat="45.50657" lon="6.05271">
        <ele>327.9</ele>
        <time>2014-04-13T08:42:04Z</time>
      </trkpt>
      <trkpt lat="45.50671" lon="6.05288">
        <ele>331.92</ele>
        <time>2014-04-13T08:43:07Z</time>
      </trkpt>
      <trkpt lat="45.50678" lon="6.05313">
        <ele>332.24</ele>
        <time>2014-04-13T08:43:24Z</time>
      </trkpt>
      <trkpt lat="45.50694" lon="6.05323">
        <ele>332.95</ele>
        <time>2014-04-13T08:44:07Z</time>
      </trkpt>
      <trkpt lat="45.50707" lon="6.05345">
        <ele>338.32</ele>
        <time>2014-04-13T08:44:30Z</time>
      </trkpt>
      <trkpt lat="45.50718" lon="6.05366">
        <ele>343.58</ele>
        <time>2014-04-13T08:44:44Z</time>
      </trkpt>
      <trkpt lat="45.50731" lon="6.05383">
        <ele>350.88</ele>
        <time>2014-04-13T08:45:31Z</time>
      </trkpt>
      <trkpt lat="45.50749" lon="6.05387">
        <ele>357.97</ele>
        <time>2014-04-13T08:46:10Z</time>
      </trkpt>
      <trkpt lat="45.50763" lon="6.05406">
        <ele>361.3</ele>
        <time>2014-04-13T08:46:32Z</time>
      </trkpt>
      <trkpt lat="45.5077" lon="6.0543">
        <ele>359.54</ele>
        <time>2014-04-13T08:46:48Z</time>
      </trkpt>
      <trkpt lat="45.50774" lon="6.05455">
        <ele>356.51</ele>
        <time>2014-04-13T08:47:07Z</time>
      </trkpt>
      <trkpt lat="45.50778" lon="6.05481">
        <ele>358.72</ele>
        <time>2014-04-13T08:47:22Z</time>
      </trkpt>
      <trkpt lat="45.50785" lon="6.05456">
        <ele>371.04</ele>
        <time>2014-04-13T08:48:20Z</time>
      </trkpt>
      <trkpt lat="45.50785" lon="6.05431">
        <ele>372.07</ele>
        <time>2014-04-13T08:48:44Z</time>
      </trkpt>
      <trkpt lat="45.50794" lon="6.05408">
        <ele>380.64</ele>
        <time>2014-04-13T08:49:00Z</time>
      </trkpt>
      <trkpt lat="45.50795" lon="6.05382">
        <ele>384.09</ele>
        <time>2014-04-13T08:49:23Z</time>
      </trkpt>
      <trkpt lat="45.50806" lon="6.05403">
        <ele>389.18</ele>
        <time>2014-04-13T08:49:56Z</time>
      </trkpt>
      <trkpt lat="45.50814" lon="6.05426">
        <ele>392.43</ele>
        <time>2014-04-13T08:50:15Z</time>
      </trkpt>
      <trkpt lat="45.50826" lon="6.05446">
        <ele>392.22</ele>
        <time>2014-04-13T08:50:44Z</time>
      </trkpt>
      <trkpt lat="45.50833" lon="6.0547">
        <ele>399.67</ele>
        <time>2014-04-13T08:51:00Z</time>
      </trkpt>
      <trkpt lat="45.50844" lon="6.0549">
        <ele>403.43</ele>
        <time>2014-04-13T08:51:24Z</time>
      </trkpt>
      <trkpt lat="45.50857" lon="6.05509">
        <ele>408.08</ele>
        <time>2014-04-13T08:51:45Z</time>
      </trkpt>
      <trkpt lat="45.50869" lon="6.05528">
        <ele>411.44</ele>
        <time>2014-04-13T08:52:16Z</time>
      </trkpt>
      <trkpt lat="45.50882" lon="6.05547">
        <ele>412.73</ele>
        <time>2014-04-13T08:52:42Z</time>
      </trkpt>
      <trkpt lat="45.50895" lon="6.05564">
        <ele>414.84</ele>
        <time>2014-04-13T08:53:05Z</time>
      </trkpt>
      <trkpt lat="45.50913" lon="6.05571">
        <ele>426.57</ele>
        <time>2014-04-13T08:54:03Z</time>
      </trkpt>
      <trkpt lat="45.50927" lon="6.05589">
        <ele>431.64</ele>
        <time>2014-04-13T08:54:28Z</time>
      </trkpt>
      <trkpt lat="45.50929" lon="6.05563">
        <ele>441.32</ele>
        <time>2014-04-13T08:55:31Z</time>
      </trkpt>
      <trkpt lat="45.50924" lon="6.05538">
        <ele>445.36</ele>
        <time>2014-04-13T08:55:51Z</time>
      </trkpt>
      <trkpt lat="45.50915" lon="6.05514">
        <ele>447.63</ele>
        <time>2014-04-13T08:56:13Z</time>
      </trkpt>
      <trkpt lat="45.50913" lon="6.05488">
        <ele>450.25</ele>
        <time>2014-04-13T08:56:38Z</time>
      </trkpt>
      <trkpt lat="45.50931" lon="6.05493">
        <ele>459.26</ele>
        <time>2014-04-13T08:57:39Z</time>
      </trkpt>
      <trkpt lat="45.50948" lon="6.05505">
        <ele>457</ele>
        <time>2014-04-13T08:57:58Z</time>
      </trkpt>
      <trkpt lat="45.50962" lon="6.05522">
        <ele>459.41</ele>
        <time>2014-04-13T08:58:19Z</time>
      </trkpt>
      <trkpt lat="45.50975" lon="6.05541">
        <ele>470.19</ele>
        <time>2014-04-13T08:58:41Z</time>
      </trkpt>
      <trkpt lat="45.50988" lon="6.0556">
        <ele>471.18</ele>
        <time>2014-04-13T08:59:10Z</time>
      </trkpt>
      <trkpt lat="45.51004" lon="6.05572">
        <ele>473.33</ele>
        <time>2014-04-13T08:59:31Z</time>
      </trkpt>
      <trkpt lat="45.50996" lon="6.05548">
        <ele>478.23</ele>
        <time>2014-04-13T09:00:10Z</time>
      </trkpt>
      <trkpt lat="45.5099" lon="6.05524">
        <ele>480.88</ele>
        <time>2014-04-13T09:00:31Z</time>
      </trkpt>
      <trkpt lat="45.50983" lon="6.05498">
        <ele>474.65</ele>
        <time>2014-04-13T09:00:52Z</time>
      </trkpt>
      <trkpt lat="45.50979" lon="6.05472">
        <ele>477.03</ele>
        <time>2014-04-13T09:01:13Z</time>
      </trkpt>
      <trkpt lat="45.50978" lon="6.05447">
        <ele>490.93</ele>
        <time>2014-04-13T09:01:43Z</time>
      </trkpt>
      <trkpt lat="45.50969" lon="6.05424">
        <ele>492.63</ele>
        <time>2014-04-13T09:02:05Z</time>
      </trkpt>
      <trkpt lat="45.50968" lon="6.05397">
        <ele>484.61</ele>
        <time>2014-04-13T09:02:25Z</time>
      </trkpt>
      <trkpt lat="45.50961" lon="6.05372">
        <ele>491.49</ele>
        <time>2014-04-13T09:02:45Z</time>
      </trkpt>
      <trkpt lat="45.50957" lon="6.05347">
        <ele>498.08</ele>
        <time>2014-04-13T09:03:10Z</time>
      </trkpt>
      <trkpt lat="45.50951" lon="6.05323">
        <ele>501.98</ele>
        <time>2014-04-13T09:03:33Z</time>
      </trkpt>
      <trkpt lat="45.50947" lon="6.05297">
        <ele>510.15</ele>
        <time>2014-04-13T09:03:54Z</time>
      </trkpt>
      <trkpt lat="45.50948" lon="6.05269">
        <ele>504.65</ele>
        <time>2014-04-13T09:04:16Z</time>
      </trkpt>
      <trkpt lat="45.50946" lon="6.05243">
        <ele>509.37</ele>
        <time>2014-04-13T09:04:34Z</time>
      </trkpt>
      <trkpt lat="45.50944" lon="6.05217">
        <ele>516.44</ele>
        <time>2014-04-13T09:04:57Z</time>
      </trkpt>
      <trkpt lat="45.50945" lon="6.05191">
        <ele>519.3</ele>
        <time>2014-04-13T09:05:17Z</time>
      </trkpt>
      <trkpt lat="45.50943" lon="6.05164">
        <ele>521.92</ele>
        <time>2014-04-13T09:05:46Z</time>
      </trkpt>
      <trkpt lat="45.50948" lon="6.05139">
        <ele>504.93</ele>
        <time>2014-04-13T09:06:14Z</time>
      </trkpt>
      <trkpt lat="45.50952" lon="6.05113">
        <ele>516.92</ele>
        <time>2014-04-13T09:06:33Z</time>
      </trkpt>
      <trkpt lat="45.50948" lon="6.05088">
        <ele>527.61</ele>
        <time>2014-04-13T09:07:02Z</time>
      </trkpt>
      <trkpt lat="45.50944" lon="6.05064">
        <ele>524.04</ele>
        <time>2014-04-13T09:07:30Z</time>
      </trkpt>
      <trkpt lat="45.50941" lon="6.05037">
        <ele>525.6</ele>
        <time>2014-04-13T09:07:53Z</time>
      </trkpt>
      <trkpt lat="45.50929" lon="6.05016">
        <ele>539.84</ele>
        <time>2014-04-13T09:08:08Z</time>
      </trkpt>
      <trkpt lat="45.50922" lon="6.04993">
        <ele>539.95</ele>
        <time>2014-04-13T09:08:33Z</time>
      </trkpt>
      <trkpt lat="45.50922" lon="6.04965">
        <ele>547.04</ele>
        <time>2014-04-13T09:08:50Z</time>
      </trkpt>
      <trkpt lat="45.50924" lon="6.04939">
        <ele>561.02</ele>
        <time>2014-04-13T09:10:57Z</time>
      </trkpt>
      <trkpt lat="45.50937" lon="6.0492">
        <ele>563.41</ele>
        <time>2014-04-13T09:11:18Z</time>
      </trkpt>
      <trkpt lat="45.50944" lon="6.04945">
        <ele>576.33</ele>
        <time>2014-04-13T09:12:21Z</time>
      </trkpt>
      <trkpt lat="45.50948" lon="6.0497">
        <ele>580.07</ele>
        <time>2014-04-13T09:12:46Z</time>
      </trkpt>
      <trkpt lat="45.50962" lon="6.04987">
        <ele>583.45</ele>
        <time>2014-04-13T09:13:13Z</time>
      </trkpt>
      <trkpt lat="45.50976" lon="6.05004">
        <ele>588.34</ele>
        <time>2014-04-13T09:13:38Z</time>
      </trkpt>
      <trkpt lat="45.50991" lon="6.05018">
        <ele>587.2</ele>
        <time>2014-04-13T09:13:59Z</time>
      </trkpt>
      <trkpt lat="45.51004" lon="6.05036">
        <ele>593.56</ele>
        <time>2014-04-13T09:14:19Z</time>
      </trkpt>
      <trkpt lat="45.51013" lon="6.05059">
        <ele>598.45</ele>
        <time>2014-04-13T09:14:45Z</time>
      </trkpt>
      <trkpt lat="45.51021" lon="6.05083">
        <ele>599.19</ele>
        <time>2014-04-13T09:15:08Z</time>
      </trkpt>
      <trkpt lat="45.5102" lon="6.05108">
        <ele>603.16</ele>
        <time>2014-04-13T09:15:30Z</time>
      </trkpt>
      <trkpt lat="45.5102" lon="6.05135">
        <ele>602.18</ele>
        <time>2014-04-13T09:15:52Z</time>
      </trkpt>
      <trkpt lat="45.51028" lon="6.05158">
        <ele>604.33</ele>
        <time>2014-04-13T09:16:15Z</time>
      </trkpt>
      <trkpt lat="45.51038" lon="6.0518">
        <ele>609.67</ele>
        <time>2014-04-13T09:16:37Z</time>
      </trkpt>
      <trkpt lat="45.51045" lon="6.05205">
        <ele>619.84</ele>
        <time>2014-04-13T09:17:00Z</time>
      </trkpt>
      <trkpt lat="45.51057" lon="6.05224">
        <ele>624.43</ele>
        <time>2014-04-13T09:17:30Z</time>
      </trkpt>
      <trkpt lat="45.51073" lon="6.05238">
        <ele>634.54</ele>
        <time>2014-04-13T09:18:04Z</time>
      </trkpt>
      <trkpt lat="45.51086" lon="6.05256">
        <ele>642.26</ele>
        <time>2014-04-13T09:18:32Z</time>
      </trkpt>
      <trkpt lat="45.51102" lon="6.05269">
        <ele>646.03</ele>
        <time>2014-04-13T09:19:00Z</time>
      </trkpt>
      <trkpt lat="45.51118" lon="6.05283">
        <ele>649.26</ele>
        <time>2014-04-13T09:19:23Z</time>
      </trkpt>
      <trkpt lat="45.51136" lon="6.05282">
        <ele>649.68</ele>
        <time>2014-04-13T09:19:50Z</time>
      </trkpt>
      <trkpt lat="45.51153" lon="6.05289">
        <ele>654.25</ele>
        <time>2014-04-13T09:20:20Z</time>
      </trkpt>
      <trkpt lat="45.51169" lon="6.05301">
        <ele>661.37</ele>
        <time>2014-04-13T09:20:49Z</time>
      </trkpt>
      <trkpt lat="45.51186" lon="6.05312">
        <ele>668.35</ele>
        <time>2014-04-13T09:21:15Z</time>
      </trkpt>
      <trkpt lat="45.51197" lon="6.05332">
        <ele>673.97</ele>
        <time>2014-04-13T09:21:45Z</time>
      </trkpt>
      <trkpt lat="45.51215" lon="6.05339">
        <ele>681.56</ele>
        <time>2014-04-13T09:22:12Z</time>
      </trkpt>
      <trkpt lat="45.51233" lon="6.05332">
        <ele>678.67</ele>
        <time>2014-04-13T09:22:32Z</time>
      </trkpt>
      <trkpt lat="45.5125" lon="6.05342">
        <ele>686.34</ele>
        <time>2014-04-13T09:23:01Z</time>
      </trkpt>
      <trkpt lat="45.51269" lon="6.05345">
        <ele>694.72</ele>
        <time>2014-04-13T09:23:40Z</time>
      </trkpt>
      <trkpt lat="45.51282" lon="6.05364">
        <ele>709.15</ele>
        <time>2014-04-13T09:24:08Z</time>
      </trkpt>
      <trkpt lat="45.513" lon="6.05369">
        <ele>713.22</ele>
        <time>2014-04-13T09:24:35Z</time>
      </trkpt>
      <trkpt lat="45.51318" lon="6.05366">
        <ele>710.76</ele>
        <time>2014-04-13T09:24:56Z</time>
      </trkpt>
      <trkpt lat="45.51305" lon="6.05349">
        <ele>712.04</ele>
        <time>2014-04-13T09:25:29Z</time>
      </trkpt>
      <trkpt lat="45.51297" lon="6.05325">
        <ele>717.41</ele>
        <time>2014-04-13T09:25:55Z</time>
      </trkpt>
      <trkpt lat="45.5128" lon="6.05315">
        <ele>730.42</ele>
        <time>2014-04-13T09:26:32Z</time>
      </trkpt>
      <trkpt lat="45.51266" lon="6.05298">
        <ele>733.99</ele>
        <time>2014-04-13T09:26:55Z</time>
      </trkpt>
      <trkpt lat="45.51251" lon="6.05283">
        <ele>737.61</ele>
        <time>2014-04-13T09:27:16Z</time>
      </trkpt>
      <trkpt lat="45.5125" lon="6.05256">
        <ele>739.89</ele>
        <time>2014-04-13T09:27:36Z</time>
      </trkpt>
      <trkpt lat="45.51239" lon="6.05235">
        <ele>748.4</ele>
        <time>2014-04-13T09:28:16Z</time>
      </trkpt>
      <trkpt lat="45.51248" lon="6.05209">
        <ele>748.09</ele>
        <time>2014-04-13T09:28:26Z</time>
      </trkpt>
      <trkpt lat="45.51236" lon="6.0519">
        <ele>753.6</ele>
        <time>2014-04-13T09:28:50Z</time>
      </trkpt>
      <trkpt lat="45.51238" lon="6.05164">
        <ele>759.32</ele>
        <time>2014-04-13T09:29:08Z</time>
      </trkpt>
      <trkpt lat="45.5122" lon="6.05154">
        <ele>765.48</ele>
        <time>2014-04-13T09:29:34Z</time>
      </trkpt>
      <trkpt lat="45.51205" lon="6.05139">
        <ele>765.87</ele>
        <time>2014-04-13T09:29:54Z</time>
      </trkpt>
      <trkpt lat="45.5122" lon="6.0512">
        <ele>761.78</ele>
        <time>2014-04-13T09:30:09Z</time>
      </trkpt>
      <trkpt lat="45.51236" lon="6.05108">
        <ele>760.59</ele>
        <time>2014-04-13T09:30:28Z</time>
      </trkpt>
      <trkpt lat="45.51245" lon="6.0513">
        <ele>774.57</ele>
        <time>2014-04-13T09:31:00Z</time>
      </trkpt>
      <trkpt lat="45.51259" lon="6.05147">
        <ele>780.6</ele>
        <time>2014-04-13T09:31:26Z</time>
      </trkpt>
      <trkpt lat="45.51276" lon="6.05159">
        <ele>787.14</ele>
        <time>2014-04-13T09:31:51Z</time>
      </trkpt>
      <trkpt lat="45.51259" lon="6.05148">
        <ele>792.39</ele>
        <time>2014-04-13T09:32:37Z</time>
      </trkpt>
      <trkpt lat="45.51251" lon="6.05124">
        <ele>799.77</ele>
        <time>2014-04-13T09:33:04Z</time>
      </trkpt>
      <trkpt lat="45.51236" lon="6.05108">
        <ele>802.38</ele>
        <time>2014-04-13T09:33:43Z</time>
      </trkpt>
      <trkpt lat="45.51235" lon="6.05082">
        <ele>804.98</ele>
        <time>2014-04-13T09:34:21Z</time>
      </trkpt>
      <trkpt lat="45.51253" lon="6.05078">
        <ele>815.73</ele>
        <time>2014-04-13T09:35:17Z</time>
      </trkpt>
      <trkpt lat="45.51264" lon="6.05099">
        <ele>822.53</ele>
        <time>2014-04-13T09:35:48Z</time>
      </trkpt>
      <trkpt lat="45.51278" lon="6.05115">
        <ele>829.79</ele>
        <time>2014-04-13T09:36:14Z</time>
      </trkpt>
      <trkpt lat="45.51296" lon="6.0512">
        <ele>833.95</ele>
        <time>2014-04-13T09:36:46Z</time>
      </trkpt>
      <trkpt lat="45.51313" lon="6.05129">
        <ele>841.28</ele>
        <time>2014-04-13T09:37:11Z</time>
      </trkpt>
      <trkpt lat="45.51329" lon="6.05141">
        <ele>844.39</ele>
        <time>2014-04-13T09:37:34Z</time>
      </trkpt>
      <trkpt lat="45.51345" lon="6.05153">
        <ele>849.28</ele>
        <time>2014-04-13T09:37:58Z</time>
      </trkpt>
      <trkpt lat="45.51364" lon="6.05157">
        <ele>853.2</ele>
        <time>2014-04-13T09:38:27Z</time>
      </trkpt>
      <trkpt lat="45.51382" lon="6.05158">
        <ele>851.82</ele>
        <time>2014-04-13T09:38:50Z</time>
      </trkpt>
      <trkpt lat="45.51399" lon="6.05164">
        <ele>854.47</ele>
        <time>2014-04-13T09:39:11Z</time>
      </trkpt>
      <trkpt lat="45.51417" lon="6.05171">
        <ele>859.89</ele>
        <time>2014-04-13T09:39:37Z</time>
      </trkpt>
      <trkpt lat="45.51408" lon="6.05149">
        <ele>871.71</ele>
        <time>2014-04-13T09:40:10Z</time>
      </trkpt>
      <trkpt lat="45.51404" lon="6.05124">
        <ele>875.65</ele>
        <time>2014-04-13T09:40:39Z</time>
      </trkpt>
      <trkpt lat="45.51397" lon="6.051">
        <ele>877.76</ele>
        <time>2014-04-13T09:41:02Z</time>
      </trkpt>
      <trkpt lat="45.51384" lon="6.05081">
        <ele>887.58</ele>
        <time>2014-04-13T09:41:28Z</time>
      </trkpt>
      <trkpt lat="45.51376" lon="6.05058">
        <ele>892.85</ele>
        <time>2014-04-13T09:47:24Z</time>
      </trkpt>
      <trkpt lat="45.51394" lon="6.05053">
        <ele>905.94</ele>
        <time>2014-04-13T09:47:58Z</time>
      </trkpt>
      <trkpt lat="45.51412" lon="6.05059">
        <ele>907.72</ele>
        <time>2014-04-13T09:48:25Z</time>
      </trkpt>
      <trkpt lat="45.51428" lon="6.05049">
        <ele>913.09</ele>
        <time>2014-04-13T09:48:50Z</time>
      </trkpt>
      <trkpt lat="45.51445" lon="6.05038">
        <ele>922.51</ele>
        <time>2014-04-13T09:49:28Z</time>
      </trkpt>
      <trkpt lat="45.51463" lon="6.05041">
        <ele>925.08</ele>
        <time>2014-04-13T09:49:43Z</time>
      </trkpt>
      <trkpt lat="45.51479" lon="6.05055">
        <ele>927.52</ele>
        <time>2014-04-13T09:50:04Z</time>
      </trkpt>
      <trkpt lat="45.51493" lon="6.05072">
        <ele>936.47</ele>
        <time>2014-04-13T09:50:24Z</time>
      </trkpt>
      <trkpt lat="45.51511" lon="6.05072">
        <ele>929.19</ele>
        <time>2014-04-13T09:50:38Z</time>
      </trkpt>
      <trkpt lat="45.51526" lon="6.05088">
        <ele>930.99</ele>
        <time>2014-04-13T09:50:57Z</time>
      </trkpt>
      <trkpt lat="45.51542" lon="6.05102">
        <ele>928.76</ele>
        <time>2014-04-13T09:51:15Z</time>
      </trkpt>
      <trkpt lat="45.51555" lon="6.05119">
        <ele>928.4</ele>
        <time>2014-04-13T09:51:33Z</time>
      </trkpt>
      <trkpt lat="45.5155" lon="6.05094">
        <ele>949.93</ele>
        <time>2014-04-13T09:52:42Z</time>
      </trkpt>
      <trkpt lat="45.51568" lon="6.05097">
        <ele>953.26</ele>
        <time>2014-04-13T09:53:19Z</time>
      </trkpt>
      <trkpt lat="45.51583" lon="6.05114">
        <ele>956.61</ele>
        <time>2014-04-13T09:53:44Z</time>
      </trkpt>
      <trkpt lat="45.51601" lon="6.05119">
        <ele>975.25</ele>
        <time>2014-04-13T09:55:05Z</time>
      </trkpt>
      <trkpt lat="45.5161" lon="6.05142">
        <ele>979.17</ele>
        <time>2014-04-13T09:55:46Z</time>
      </trkpt>
      <trkpt lat="45.51618" lon="6.05165">
        <ele>975.16</ele>
        <time>2014-04-13T09:56:11Z</time>
      </trkpt>
      <trkpt lat="45.51619" lon="6.05192">
        <ele>959.93</ele>
        <time>2014-04-13T09:56:49Z</time>
      </trkpt>
      <trkpt lat="45.51621" lon="6.05218">
        <ele>953.5</ele>
        <time>2014-04-13T09:57:09Z</time>
      </trkpt>
      <trkpt lat="45.51629" lon="6.05242">
        <ele>945.92</ele>
        <time>2014-04-13T09:57:35Z</time>
      </trkpt>
      <trkpt lat="45.51639" lon="6.05265">
        <ele>941.74</ele>
        <time>2014-04-13T09:57:48Z</time>
      </trkpt>
      <trkpt lat="45.51651" lon="6.05285">
        <ele>936.93</ele>
        <time>2014-04-13T09:58:08Z</time>
      </trkpt>
      <trkpt lat="45.51665" lon="6.05301">
        <ele>937.79</ele>
        <time>2014-04-13T09:59:04Z</time>
      </trkpt>
      <trkpt lat="45.5168" lon="6.05317">
        <ele>938.73</ele>
        <time>2014-04-13T09:59:24Z</time>
      </trkpt>
      <trkpt lat="45.51686" lon="6.05343">
        <ele>941.32</ele>
        <time>2014-04-13T09:59:39Z</time>
      </trkpt>
      <trkpt lat="45.51687" lon="6.05368">
        <ele>945.57</ele>
        <time>2014-04-13T09:59:56Z</time>
      </trkpt>
      <trkpt lat="45.51689" lon="6.05395">
        <ele>949.07</ele>
        <time>2014-04-13T10:01:21Z</time>
      </trkpt>
      <trkpt lat="45.51689" lon="6.05422">
        <ele>956.08</ele>
        <time>2014-04-13T10:01:35Z</time>
      </trkpt>
      <trkpt lat="45.51706" lon="6.05432">
        <ele>968.43</ele>
        <time>2014-04-13T10:02:47Z</time>
      </trkpt>
      <trkpt lat="45.51714" lon="6.05456">
        <ele>970.88</ele>
        <time>2014-04-13T10:03:11Z</time>
      </trkpt>
      <trkpt lat="45.51732" lon="6.0546">
        <ele>982.42</ele>
        <time>2014-04-13T10:04:16Z</time>
      </trkpt>
      <trkpt lat="45.51746" lon="6.05476">
        <ele>986.56</ele>
        <time>2014-04-13T10:04:56Z</time>
      </trkpt>
      <trkpt lat="45.51753" lon="6.05501">
        <ele>991.8</ele>
        <time>2014-04-13T10:05:16Z</time>
      </trkpt>
      <trkpt lat="45.5177" lon="6.05492">
        <ele>1016.34</ele>
        <time>2014-04-13T10:10:48Z</time>
      </trkpt>
      <trkpt lat="45.51777" lon="6.05467">
        <ele>1023.16</ele>
        <time>2014-04-13T10:11:15Z</time>
      </trkpt>
      <trkpt lat="45.51786" lon="6.05491">
        <ele>1027.43</ele>
        <time>2014-04-13T10:12:51Z</time>
      </trkpt>
      <trkpt lat="45.51796" lon="6.05468">
        <ele>1045.85</ele>
        <time>2014-04-13T10:14:20Z</time>
      </trkpt>
      <trkpt lat="45.51795" lon="6.05442">
        <ele>1050.47</ele>
        <time>2014-04-13T10:14:50Z</time>
      </trkpt>
      <trkpt lat="45.51806" lon="6.05463">
        <ele>1051.37</ele>
        <time>2014-04-13T10:15:39Z</time>
      </trkpt>
      <trkpt lat="45.51815" lon="6.05486">
        <ele>1058.29</ele>
        <time>2014-04-13T10:16:00Z</time>
      </trkpt>
      <trkpt lat="45.51825" lon="6.05508">
        <ele>1055.58</ele>
        <time>2014-04-13T10:16:19Z</time>
      </trkpt>
      <trkpt lat="45.51841" lon="6.05521">
        <ele>1057.09</ele>
        <time>2014-04-13T10:16:33Z</time>
      </trkpt>
      <trkpt lat="45.51858" lon="6.05528">
        <ele>1052.34</ele>
        <time>2014-04-13T10:16:51Z</time>
      </trkpt>
      <trkpt lat="45.5187" lon="6.05547">
        <ele>1056.96</ele>
        <time>2014-04-13T10:17:16Z</time>
      </trkpt>
      <trkpt lat="45.51888" lon="6.05553">
        <ele>1066.47</ele>
        <time>2014-04-13T10:17:58Z</time>
      </trkpt>
      <trkpt lat="45.51903" lon="6.05538">
        <ele>1065.5</ele>
        <time>2014-04-13T10:18:18Z</time>
      </trkpt>
      <trkpt lat="45.51913" lon="6.05516">
        <ele>1069.81</ele>
        <time>2014-04-13T10:18:41Z</time>
      </trkpt>
      <trkpt lat="45.51901" lon="6.05497">
        <ele>1087.93</ele>
        <time>2014-04-13T10:19:38Z</time>
      </trkpt>
      <trkpt lat="45.51886" lon="6.05482">
        <ele>1095.75</ele>
        <time>2014-04-13T10:19:54Z</time>
      </trkpt>
      <trkpt lat="45.51872" lon="6.05467">
        <ele>1100.71</ele>
        <time>2014-04-13T10:20:19Z</time>
      </trkpt>
      <trkpt lat="45.51863" lon="6.05445">
        <ele>1099.21</ele>
        <time>2014-04-13T10:20:35Z</time>
      </trkpt>
      <trkpt lat="45.51859" lon="6.05419">
        <ele>1101.22</ele>
        <time>2014-04-13T10:20:54Z</time>
      </trkpt>
      <trkpt lat="45.51853" lon="6.05394">
        <ele>1103.91</ele>
        <time>2014-04-13T10:21:13Z</time>
      </trkpt>
      <trkpt lat="45.51851" lon="6.05368">
        <ele>1105.74</ele>
        <time>2014-04-13T10:21:36Z</time>
      </trkpt>
      <trkpt lat="45.51852" lon="6.05342">
        <ele>1108.64</ele>
        <time>2014-04-13T10:21:59Z</time>
      </trkpt>
      <trkpt lat="45.51858" lon="6.05318">
        <ele>1114.66</ele>
        <time>2014-04-13T10:23:01Z</time>
      </trkpt>
      <trkpt lat="45.51852" lon="6.05294">
        <ele>1120.5</ele>
        <time>2014-04-13T10:24:51Z</time>
      </trkpt>
      <trkpt lat="45.5186" lon="6.05271">
        <ele>1126.27</ele>
        <time>2014-04-13T10:25:17Z</time>
      </trkpt>
      <trkpt lat="45.51869" lon="6.05248">
        <ele>1134.53</ele>
        <time>2014-04-13T10:25:44Z</time>
      </trkpt>
      <trkpt lat="45.51862" lon="6.05222">
        <ele>1135.94</ele>
        <time>2014-04-13T10:26:10Z</time>
      </trkpt>
      <trkpt lat="45.51852" lon="6.052">
        <ele>1140.95</ele>
        <time>2014-04-13T10:26:32Z</time>
      </trkpt>
      <trkpt lat="45.51839" lon="6.05183">
        <ele>1149.31</ele>
        <time>2014-04-13T10:27:12Z</time>
      </trkpt>
      <trkpt lat="45.51825" lon="6.05167">
        <ele>1155.83</ele>
        <time>2014-04-13T10:27:39Z</time>
      </trkpt>
      <trkpt lat="45.51818" lon="6.05143">
        <ele>1157.03</ele>
        <time>2014-04-13T10:28:04Z</time>
      </trkpt>
      <trkpt lat="45.51807" lon="6.05121">
        <ele>1162.67</ele>
        <time>2014-04-13T10:28:30Z</time>
      </trkpt>
      <trkpt lat="45.5179" lon="6.05112">
        <ele>1167.93</ele>
        <time>2014-04-13T10:29:00Z</time>
      </trkpt>
      <trkpt lat="45.51773" lon="6.051">
        <ele>1169.72</ele>
        <time>2014-04-13T10:29:29Z</time>
      </trkpt>
      <trkpt lat="45.51757" lon="6.05088">
        <ele>1177.48</ele>
        <time>2014-04-13T10:29:54Z</time>
      </trkpt>
      <trkpt lat="45.51747" lon="6.05065">
        <ele>1182.38</ele>
        <time>2014-04-13T10:30:21Z</time>
      </trkpt>
      <trkpt lat="45.51745" lon="6.0504">
        <ele>1185.79</ele>
        <time>2014-04-13T10:32:55Z</time>
      </trkpt>
      <trkpt lat="45.51739" lon="6.05015">
        <ele>1193.37</ele>
        <time>2014-04-13T10:33:26Z</time>
      </trkpt>
      <trkpt lat="45.51731" lon="6.04992">
        <ele>1196.32</ele>
        <time>2014-04-13T10:33:54Z</time>
      </trkpt>
      <trkpt lat="45.51723" lon="6.04968">
        <ele>1197.88</ele>
        <time>2014-04-13T10:34:18Z</time>
      </trkpt>
      <trkpt lat="45.51717" lon="6.04944">
        <ele>1199.33</ele>
        <time>2014-04-13T10:34:39Z</time>
      </trkpt>
      <trkpt lat="45.51711" lon="6.04919">
        <ele>1201.5</ele>
        <time>2014-04-13T10:35:03Z</time>
      </trkpt>
      <trkpt lat="45.5171" lon="6.04893">
        <ele>1204.61</ele>
        <time>2014-04-13T10:35:25Z</time>
      </trkpt>
      <trkpt lat="45.51728" lon="6.04899">
        <ele>1197.87</ele>
        <time>2014-04-13T11:11:57Z</time>
      </trkpt>
      <trkpt lat="45.51736" lon="6.04923">
        <ele>1200.81</ele>
        <time>2014-04-13T11:12:28Z</time>
      </trkpt>
      <trkpt lat="45.51736" lon="6.04896">
        <ele>1195.88</ele>
        <time>2014-04-13T11:13:14Z</time>
      </trkpt>
      <trkpt lat="45.51734" lon="6.04871">
        <ele>1197.02</ele>
        <time>2014-04-13T11:13:40Z</time>
      </trkpt>
      <trkpt lat="45.51723" lon="6.0485">
        <ele>1195.7</ele>
        <time>2014-04-13T11:14:07Z</time>
      </trkpt>
      <trkpt lat="45.5171" lon="6.04831">
        <ele>1197.42</ele>
        <time>2014-04-13T11:14:49Z</time>
      </trkpt>
      <trkpt lat="45.51696" lon="6.04815">
        <ele>1192.63</ele>
        <time>2014-04-13T11:15:06Z</time>
      </trkpt>
      <trkpt lat="45.51678" lon="6.04813">
        <ele>1178.45</ele>
        <time>2014-04-13T11:15:32Z</time>
      </trkpt>
      <trkpt lat="45.51659" lon="6.0481">
        <ele>1175.36</ele>
        <time>2014-04-13T11:15:49Z</time>
      </trkpt>
      <trkpt lat="45.51645" lon="6.04793">
        <ele>1175.03</ele>
        <time>2014-04-13T11:16:06Z</time>
      </trkpt>
      <trkpt lat="45.51627" lon="6.0479">
        <ele>1177.77</ele>
        <time>2014-04-13T11:16:42Z</time>
      </trkpt>
      <trkpt lat="45.51611" lon="6.04776">
        <ele>1179.66</ele>
        <time>2014-04-13T11:17:10Z</time>
      </trkpt>
      <trkpt lat="45.51605" lon="6.04751">
        <ele>1179.04</ele>
        <time>2014-04-13T11:17:34Z</time>
      </trkpt>
      <trkpt lat="45.51594" lon="6.0473">
        <ele>1186.92</ele>
        <time>2014-04-13T11:17:55Z</time>
      </trkpt>
      <trkpt lat="45.51589" lon="6.04705">
        <ele>1180.55</ele>
        <time>2014-04-13T11:21:21Z</time>
      </trkpt>
      <trkpt lat="45.51587" lon="6.0468">
        <ele>1185.99</ele>
        <time>2014-04-13T11:22:18Z</time>
      </trkpt>
      <trkpt lat="45.51584" lon="6.04654">
        <ele>1190.28</ele>
        <time>2014-04-13T11:22:37Z</time>
      </trkpt>
      <trkpt lat="45.51585" lon="6.04627">
        <ele>1189.94</ele>
        <time>2014-04-13T11:22:54Z</time>
      </trkpt>
      <trkpt lat="45.51583" lon="6.046">
        <ele>1185.3</ele>
        <time>2014-04-13T11:23:09Z</time>
      </trkpt>
      <trkpt lat="45.5158" lon="6.04574">
        <ele>1193.54</ele>
        <time>2014-04-13T11:23:26Z</time>
      </trkpt>
      <trkpt lat="45.51578" lon="6.04547">
        <ele>1192.82</ele>
        <time>2014-04-13T11:23:41Z</time>
      </trkpt>
      <trkpt lat="45.51573" lon="6.04523">
        <ele>1192.69</ele>
        <time>2014-04-13T11:24:51Z</time>
      </trkpt>
      <trkpt lat="45.51556" lon="6.04514">
        <ele>1196.34</ele>
        <time>2014-04-13T11:25:46Z</time>
      </trkpt>
      <trkpt lat="45.51544" lon="6.04494">
        <ele>1193.86</ele>
        <time>2014-04-13T11:26:19Z</time>
      </trkpt>
      <trkpt lat="45.51543" lon="6.04468">
        <ele>1194.9</ele>
        <time>2014-04-13T11:29:17Z</time>
      </trkpt>
      <trkpt lat="45.51545" lon="6.04442">
        <ele>1194.33</ele>
        <time>2014-04-13T11:29:58Z</time>
      </trkpt>
      <trkpt lat="45.51544" lon="6.04416">
        <ele>1194.03</ele>
        <time>2014-04-13T11:30:22Z</time>
      </trkpt>
      <trkpt lat="45.51546" lon="6.04389">
        <ele>1196.19</ele>
        <time>2014-04-13T11:30:45Z</time>
      </trkpt>
      <trkpt lat="45.51543" lon="6.04363">
        <ele>1195.21</ele>
        <time>2014-04-13T11:31:14Z</time>
      </trkpt>
      <trkpt lat="45.51541" lon="6.04337">
        <ele>1192.44</ele>
        <time>2014-04-13T11:31:58Z</time>
      </trkpt>
      <trkpt lat="45.51548" lon="6.04313">
        <ele>1186.8</ele>
        <time>2014-04-13T11:32:25Z</time>
      </trkpt>
      <trkpt lat="45.51561" lon="6.04295">
        <ele>1176.37</ele>
        <time>2014-04-13T11:33:39Z</time>
      </trkpt>
      <trkpt lat="45.51569" lon="6.04271">
        <ele>1158.8</ele>
        <time>2014-04-13T11:35:04Z</time>
      </trkpt>
      <trkpt lat="45.51585" lon="6.0426">
        <ele>1155.88</ele>
        <time>2014-04-13T11:35:30Z</time>
      </trkpt>
      <trkpt lat="45.51585" lon="6.04233">
        <ele>1147.88</ele>
        <time>2014-04-13T11:36:13Z</time>
      </trkpt>
      <trkpt lat="45.51577" lon="6.04209">
        <ele>1147.27</ele>
        <time>2014-04-13T11:36:31Z</time>
      </trkpt>
      <trkpt lat="45.51568" lon="6.04186">
        <ele>1134.19</ele>
        <time>2014-04-13T11:38:02Z</time>
      </trkpt>
      <trkpt lat="45.51561" lon="6.04161">
        <ele>1139.03</ele>
        <time>2014-04-13T11:38:28Z</time>
      </trkpt>
      <trkpt lat="45.51562" lon="6.04134">
        <ele>1137.33</ele>
        <time>2014-04-13T11:38:46Z</time>
      </trkpt>
      <trkpt lat="45.5157" lon="6.04111">
        <ele>1143.26</ele>
        <time>2014-04-13T11:39:10Z</time>
      </trkpt>
      <trkpt lat="45.5157" lon="6.04084">
        <ele>1137.12</ele>
        <time>2014-04-13T11:39:29Z</time>
      </trkpt>
      <trkpt lat="45.51568" lon="6.04058">
        <ele>1122.92</ele>
        <time>2014-04-13T11:39:54Z</time>
      </trkpt>
      <trkpt lat="45.51576" lon="6.04036">
        <ele>1118.41</ele>
        <time>2014-04-13T11:40:37Z</time>
      </trkpt>
      <trkpt lat="45.51585" lon="6.04012">
        <ele>1112.99</ele>
        <time>2014-04-13T11:40:52Z</time>
      </trkpt>
      <trkpt lat="45.51583" lon="6.03986">
        <ele>1108.29</ele>
        <time>2014-04-13T11:41:06Z</time>
      </trkpt>
      <trkpt lat="45.51573" lon="6.03965">
        <ele>1102.3</ele>
        <time>2014-04-13T11:41:19Z</time>
      </trkpt>
      <trkpt lat="45.51564" lon="6.03942">
        <ele>1101.92</ele>
        <time>2014-04-13T11:41:34Z</time>
      </trkpt>
      <trkpt lat="45.51553" lon="6.0392">
        <ele>1102.24</ele>
        <time>2014-04-13T11:41:51Z</time>
      </trkpt>
      <trkpt lat="45.51542" lon="6.03899">
        <ele>1105.09</ele>
        <time>2014-04-13T11:42:09Z</time>
      </trkpt>
      <trkpt lat="45.5154" lon="6.03872">
        <ele>1114.64</ele>
        <time>2014-04-13T11:42:40Z</time>
      </trkpt>
      <trkpt lat="45.51537" lon="6.03847">
        <ele>1116.17</ele>
        <time>2014-04-13T11:42:54Z</time>
      </trkpt>
      <trkpt lat="45.51538" lon="6.0382">
        <ele>1118.31</ele>
        <time>2014-04-13T11:43:07Z</time>
      </trkpt>
      <trkpt lat="45.51542" lon="6.03795">
        <ele>1120.21</ele>
        <time>2014-04-13T11:43:21Z</time>
      </trkpt>
      <trkpt lat="45.51558" lon="6.03781">
        <ele>1121.88</ele>
        <time>2014-04-13T11:43:37Z</time>
      </trkpt>
      <trkpt lat="45.51562" lon="6.03756">
        <ele>1119.23</ele>
        <time>2014-04-13T11:43:52Z</time>
      </trkpt>
      <trkpt lat="45.51564" lon="6.0373">
        <ele>1106.11</ele>
        <time>2014-04-13T11:44:11Z</time>
      </trkpt>
      <trkpt lat="45.51569" lon="6.03705">
        <ele>1106.91</ele>
        <time>2014-04-13T11:44:27Z</time>
      </trkpt>
      <trkpt lat="45.51576" lon="6.03681">
        <ele>1106.86</ele>
        <time>2014-04-13T11:44:46Z</time>
      </trkpt>
      <trkpt lat="45.51581" lon="6.03656">
        <ele>1108.51</ele>
        <time>2014-04-13T11:45:09Z</time>
      </trkpt>
      <trkpt lat="45.51581" lon="6.0363">
        <ele>1111.96</ele>
        <time>2014-04-13T11:45:26Z</time>
      </trkpt>
      <trkpt lat="45.51586" lon="6.03606">
        <ele>1105.87</ele>
        <time>2014-04-13T11:46:45Z</time>
      </trkpt>
      <trkpt lat="45.51586" lon="6.03579">
        <ele>1107.38</ele>
        <time>2014-04-13T11:47:00Z</time>
      </trkpt>
      <trkpt lat="45.51583" lon="6.03552">
        <ele>1108.85</ele>
        <time>2014-04-13T11:47:17Z</time>
      </trkpt>
      <trkpt lat="45.51584" lon="6.03525">
        <ele>1112.37</ele>
        <time>2014-04-13T11:47:32Z</time>
      </trkpt>
      <trkpt lat="45.51582" lon="6.03499">
        <ele>1104.12</ele>
        <time>2014-04-13T11:47:44Z</time>
      </trkpt>
      <trkpt lat="45.51579" lon="6.03473">
        <ele>1100.98</ele>
        <time>2014-04-13T11:48:20Z</time>
      </trkpt>
      <trkpt lat="45.51561" lon="6.03464">
        <ele>1101.92</ele>
        <time>2014-04-13T11:48:46Z</time>
      </trkpt>
      <trkpt lat="45.51544" lon="6.03457">
        <ele>1107.98</ele>
        <time>2014-04-13T11:49:27Z</time>
      </trkpt>
      <trkpt lat="45.51531" lon="6.03439">
        <ele>1118.91</ele>
        <time>2014-04-13T11:50:29Z</time>
      </trkpt>
      <trkpt lat="45.5153" lon="6.03414">
        <ele>1124.51</ele>
        <time>2014-04-13T11:51:24Z</time>
      </trkpt>
      <trkpt lat="45.51528" lon="6.03387">
        <ele>1128.73</ele>
        <time>2014-04-13T11:51:55Z</time>
      </trkpt>
      <trkpt lat="45.51538" lon="6.03366">
        <ele>1130.05</ele>
        <time>2014-04-13T11:52:29Z</time>
      </trkpt>
      <trkpt lat="45.51555" lon="6.03356">
        <ele>1128.27</ele>
        <time>2014-04-13T11:52:49Z</time>
      </trkpt>
      <trkpt lat="45.51571" lon="6.03339">
        <ele>1128.49</ele>
        <time>2014-04-13T11:53:20Z</time>
      </trkpt>
      <trkpt lat="45.51588" lon="6.03329">
        <ele>1127.01</ele>
        <time>2014-04-13T11:53:38Z</time>
      </trkpt>
      <trkpt lat="45.51606" lon="6.03324">
        <ele>1122.66</ele>
        <time>2014-04-13T11:53:57Z</time>
      </trkpt>
      <trkpt lat="45.51617" lon="6.03303">
        <ele>1122.38</ele>
        <time>2014-04-13T11:54:21Z</time>
      </trkpt>
      <trkpt lat="45.51629" lon="6.03285">
        <ele>1120.54</ele>
        <time>2014-04-13T11:54:52Z</time>
      </trkpt>
      <trkpt lat="45.51643" lon="6.03267">
        <ele>1118.73</ele>
        <time>2014-04-13T11:55:27Z</time>
      </trkpt>
      <trkpt lat="45.51653" lon="6.03246">
        <ele>1125.26</ele>
        <time>2014-04-13T11:55:44Z</time>
      </trkpt>
      <trkpt lat="45.51664" lon="6.03225">
        <ele>1129.48</ele>
        <time>2014-04-13T11:56:09Z</time>
      </trkpt>
      <trkpt lat="45.51669" lon="6.03199">
        <ele>1129.25</ele>
        <time>2014-04-13T11:56:24Z</time>
      </trkpt>
      <trkpt lat="45.51675" lon="6.03174">
        <ele>1126.06</ele>
        <time>2014-04-13T11:56:39Z</time>
      </trkpt>
      <trkpt lat="45.51685" lon="6.03153">
        <ele>1119.58</ele>
        <time>2014-04-13T11:57:25Z</time>
      </trkpt>
      <trkpt lat="45.51703" lon="6.03143">
        <ele>1111.58</ele>
        <time>2014-04-13T12:03:06Z</time>
      </trkpt>
      <trkpt lat="45.51721" lon="6.03141">
        <ele>1110.28</ele>
        <time>2014-04-13T12:03:28Z</time>
      </trkpt>
      <trkpt lat="45.51738" lon="6.03133">
        <ele>1109.28</ele>
        <time>2014-04-13T12:03:46Z</time>
      </trkpt>
      <trkpt lat="45.51753" lon="6.03119">
        <ele>1093.68</ele>
        <time>2014-04-13T12:04:46Z</time>
      </trkpt>
      <trkpt lat="45.5177" lon="6.03109">
        <ele>1084.62</ele>
        <time>2014-04-13T12:05:18Z</time>
      </trkpt>
      <trkpt lat="45.51757" lon="6.03092">
        <ele>1066.44</ele>
        <time>2014-04-13T12:10:27Z</time>
      </trkpt>
      <trkpt lat="45.51773" lon="6.03081">
        <ele>1052.49</ele>
        <time>2014-04-13T12:12:38Z</time>
      </trkpt>
      <trkpt lat="45.51791" lon="6.0308">
        <ele>1046.58</ele>
        <time>2014-04-13T12:13:11Z</time>
      </trkpt>
      <trkpt lat="45.5181" lon="6.0308">
        <ele>1041.53</ele>
        <time>2014-04-13T12:13:40Z</time>
      </trkpt>
      <trkpt lat="45.51828" lon="6.03083">
        <ele>1026.36</ele>
        <time>2014-04-13T12:14:05Z</time>
      </trkpt>
      <trkpt lat="45.51845" lon="6.03076">
        <ele>1017.42</ele>
        <time>2014-04-13T12:14:59Z</time>
      </trkpt>
      <trkpt lat="45.51857" lon="6.03056">
        <ele>1015.22</ele>
        <time>2014-04-13T12:15:35Z</time>
      </trkpt>
      <trkpt lat="45.5187" lon="6.03038">
        <ele>1008.23</ele>
        <time>2014-04-13T12:16:09Z</time>
      </trkpt>
      <trkpt lat="45.51885" lon="6.03053">
        <ele>997.09</ele>
        <time>2014-04-13T12:16:21Z</time>
      </trkpt>
      <trkpt lat="45.51903" lon="6.03046">
        <ele>998.04</ele>
        <time>2014-04-13T12:16:54Z</time>
      </trkpt>
      <trkpt lat="45.51922" lon="6.03042">
        <ele>988.71</ele>
        <time>2014-04-13T12:17:35Z</time>
      </trkpt>
      <trkpt lat="45.5194" lon="6.03045">
        <ele>988.12</ele>
        <time>2014-04-13T12:17:51Z</time>
      </trkpt>
      <trkpt lat="45.51946" lon="6.03021">
        <ele>993.95</ele>
        <time>2014-04-13T12:18:33Z</time>
      </trkpt>
      <trkpt lat="45.51964" lon="6.03025">
        <ele>992.16</ele>
        <time>2014-04-13T12:20:58Z</time>
      </trkpt>
      <trkpt lat="45.51979" lon="6.03041">
        <ele>1000.98</ele>
        <time>2014-04-13T12:21:25Z</time>
      </trkpt>
      <trkpt lat="45.51985" lon="6.03065">
        <ele>1001.82</ele>
        <time>2014-04-13T12:22:27Z</time>
      </trkpt>
      <trkpt lat="45.51974" lon="6.03087">
        <ele>1005.7</ele>
        <time>2014-04-13T12:23:08Z</time>
      </trkpt>
      <trkpt lat="45.51959" lon="6.031">
        <ele>1016.11</ele>
        <time>2014-04-13T12:23:49Z</time>
      </trkpt>
      <trkpt lat="45.51945" lon="6.03117">
        <ele>1019.19</ele>
        <time>2014-04-13T12:24:18Z</time>
      </trkpt>
      <trkpt lat="45.51931" lon="6.03133">
        <ele>1031.71</ele>
        <time>2014-04-13T12:24:55Z</time>
      </trkpt>
      <trkpt lat="45.51925" lon="6.03158">
        <ele>1035.95</ele>
        <time>2014-04-13T12:25:28Z</time>
      </trkpt>
      <trkpt lat="45.51941" lon="6.0317">
        <ele>1038.75</ele>
        <time>2014-04-13T12:25:51Z</time>
      </trkpt>
      <trkpt lat="45.51959" lon="6.03167">
        <ele>1036.51</ele>
        <time>2014-04-13T12:27:34Z</time>
      </trkpt>
      <trkpt lat="45.51978" lon="6.03171">
        <ele>1036.14</ele>
        <time>2014-04-13T12:27:51Z</time>
      </trkpt>
      <trkpt lat="45.51996" lon="6.03172">
        <ele>1036.46</ele>
        <time>2014-04-13T12:28:10Z</time>
      </trkpt>
      <trkpt lat="45.52014" lon="6.03167">
        <ele>1042.09</ele>
        <time>2014-04-13T12:28:31Z</time>
      </trkpt>
      <trkpt lat="45.52032" lon="6.0316">
        <ele>1044.34</ele>
        <time>2014-04-13T12:29:13Z</time>
      </trkpt>
      <trkpt lat="45.52051" lon="6.03156">
        <ele>1047.22</ele>
        <time>2014-04-13T12:29:34Z</time>
      </trkpt>
      <trkpt lat="45.52069" lon="6.03154">
        <ele>1048.95</ele>
        <time>2014-04-13T12:29:55Z</time>
      </trkpt>
      <trkpt lat="45.52085" lon="6.03137">
        <ele>1051.7</ele>
        <time>2014-04-13T12:30:23Z</time>
      </trkpt>
      <trkpt lat="45.52089" lon="6.03111">
        <ele>1043.86</ele>
        <time>2014-04-13T12:32:07Z</time>
      </trkpt>
      <trkpt lat="45.52098" lon="6.03088">
        <ele>1043.27</ele>
        <time>2014-04-13T12:32:26Z</time>
      </trkpt>
      <trkpt lat="45.52101" lon="6.03062">
        <ele>1044.28</ele>
        <time>2014-04-13T12:32:55Z</time>
      </trkpt>
      <trkpt lat="45.52101" lon="6.03036">
        <ele>1042.62</ele>
        <time>2014-04-13T12:33:22Z</time>
      </trkpt>
      <trkpt lat="45.52111" lon="6.03015">
        <ele>1044.87</ele>
        <time>2014-04-13T12:33:49Z</time>
      </trkpt>
      <trkpt lat="45.52126" lon="6.03">
        <ele>1040.36</ele>
        <time>2014-04-13T12:34:25Z</time>
      </trkpt>
      <trkpt lat="45.52135" lon="6.02977">
        <ele>1037.42</ele>
        <time>2014-04-13T12:35:22Z</time>
      </trkpt>
      <trkpt lat="45.52147" lon="6.02958">
        <ele>1035.28</ele>
        <time>2014-04-13T12:35:40Z</time>
      </trkpt>
      <trkpt lat="45.52163" lon="6.02944">
        <ele>1027.79</ele>
        <time>2014-04-13T12:36:00Z</time>
      </trkpt>
      <trkpt lat="45.52176" lon="6.02926">
        <ele>1026.21</ele>
        <time>2014-04-13T12:36:20Z</time>
      </trkpt>
      <trkpt lat="45.52189" lon="6.02908">
        <ele>1017.97</ele>
        <time>2014-04-13T12:37:05Z</time>
      </trkpt>
      <trkpt lat="45.52205" lon="6.02895">
        <ele>1014.78</ele>
        <time>2014-04-13T12:37:45Z</time>
      </trkpt>
      <trkpt lat="45.52218" lon="6.02878">
        <ele>1019.17</ele>
        <time>2014-04-13T12:38:09Z</time>
      </trkpt>
      <trkpt lat="45.52234" lon="6.02865">
        <ele>1019.88</ele>
        <time>2014-04-13T12:38:32Z</time>
      </trkpt>
      <trkpt lat="45.52248" lon="6.02848">
        <ele>1003.34</ele>
        <time>2014-04-13T12:39:06Z</time>
      </trkpt>
      <trkpt lat="45.52263" lon="6.02833">
        <ele>1000.75</ele>
        <time>2014-04-13T12:39:52Z</time>
      </trkpt>
      <trkpt lat="45.52276" lon="6.02814">
        <ele>1000.21</ele>
        <time>2014-04-13T12:40:26Z</time>
      </trkpt>
      <trkpt lat="45.52291" lon="6.028">
        <ele>1003.36</ele>
        <time>2014-04-13T12:40:42Z</time>
      </trkpt>
      <trkpt lat="45.52308" lon="6.02789">
        <ele>1006.13</ele>
        <time>2014-04-13T12:41:05Z</time>
      </trkpt>
      <trkpt lat="45.52326" lon="6.02787">
        <ele>995.8</ele>
        <time>2014-04-13T12:42:54Z</time>
      </trkpt>
      <trkpt lat="45.52342" lon="6.02774">
        <ele>979.95</ele>
        <time>2014-04-13T12:43:48Z</time>
      </trkpt>
      <trkpt lat="45.52355" lon="6.02756">
        <ele>976.47</ele>
        <time>2014-04-13T12:44:42Z</time>
      </trkpt>
      <trkpt lat="45.52372" lon="6.02747">
        <ele>985.9</ele>
        <time>2014-04-13T12:45:43Z</time>
      </trkpt>
      <trkpt lat="45.52389" lon="6.02741">
        <ele>993.99</ele>
        <time>2014-04-13T12:46:25Z</time>
      </trkpt>
      <trkpt lat="45.52406" lon="6.02732">
        <ele>1004.08</ele>
        <time>2014-04-13T12:47:00Z</time>
      </trkpt>
      <trkpt lat="45.52423" lon="6.02721">
        <ele>1004.49</ele>
        <time>2014-04-13T12:47:26Z</time>
      </trkpt>
      <trkpt lat="45.52437" lon="6.02706">
        <ele>1001.58</ele>
        <time>2014-04-13T12:47:47Z</time>
      </trkpt>
      <trkpt lat="45.52454" lon="6.02694">
        <ele>1000.65</ele>
        <time>2014-04-13T12:48:07Z</time>
      </trkpt>
      <trkpt lat="45.5247" lon="6.0268">
        <ele>1001.93</ele>
        <time>2014-04-13T12:48:27Z</time>
      </trkpt>
      <trkpt lat="45.52484" lon="6.02664">
        <ele>1008.04</ele>
        <time>2014-04-13T12:48:50Z</time>
      </trkpt>
      <trkpt lat="45.52498" lon="6.02648">
        <ele>1010.11</ele>
        <time>2014-04-13T12:49:07Z</time>
      </trkpt>
      <trkpt lat="45.52516" lon="6.02641">
        <ele>1004.09</ele>
        <time>2014-04-13T12:49:25Z</time>
      </trkpt>
      <trkpt lat="45.52531" lon="6.02626">
        <ele>1006.1</ele>
        <time>2014-04-13T12:49:42Z</time>
      </trkpt>
      <trkpt lat="45.52549" lon="6.02622">
        <ele>998.94</ele>
        <time>2014-04-13T12:50:01Z</time>
      </trkpt>
      <trkpt lat="45.52567" lon="6.02612">
        <ele>996.33</ele>
        <time>2014-04-13T12:50:22Z</time>
      </trkpt>
      <trkpt lat="45.52581" lon="6.02597">
        <ele>993.81</ele>
        <time>2014-04-13T12:50:39Z</time>
      </trkpt>
      <trkpt lat="45.52597" lon="6.02583">
        <ele>998.6</ele>
        <time>2014-04-13T12:50:55Z</time>
      </trkpt>
      <trkpt lat="45.52615" lon="6.02582">
        <ele>997.47</ele>
        <time>2014-04-13T12:51:11Z</time>
      </trkpt>
      <trkpt lat="45.52634" lon="6.02582">
        <ele>998.95</ele>
        <time>2014-04-13T12:51:32Z</time>
      </trkpt>
      <trkpt lat="45.5265" lon="6.02569">
        <ele>1000.13</ele>
        <time>2014-04-13T12:51:55Z</time>
      </trkpt>
      <trkpt lat="45.52667" lon="6.0256">
        <ele>997.71</ele>
        <time>2014-04-13T12:52:10Z</time>
      </trkpt>
      <trkpt lat="45.52685" lon="6.02563">
        <ele>989.41</ele>
        <time>2014-04-13T12:52:24Z</time>
      </trkpt>
      <trkpt lat="45.52701" lon="6.02548">
        <ele>998.19</ele>
        <time>2014-04-13T12:52:42Z</time>
      </trkpt>
      <trkpt lat="45.52717" lon="6.02534">
        <ele>999.89</ele>
        <time>2014-04-13T12:53:05Z</time>
      </trkpt>
      <trkpt lat="45.52734" lon="6.02525">
        <ele>993.63</ele>
        <time>2014-04-13T12:53:31Z</time>
      </trkpt>
      <trkpt lat="45.52752" lon="6.02516">
        <ele>993.95</ele>
        <time>2014-04-13T12:53:48Z</time>
      </trkpt>
      <trkpt lat="45.52768" lon="6.02502">
        <ele>990.49</ele>
        <time>2014-04-13T12:54:12Z</time>
      </trkpt>
      <trkpt lat="45.52783" lon="6.02487">
        <ele>985.51</ele>
        <time>2014-04-13T12:54:30Z</time>
      </trkpt>
      <trkpt lat="45.52796" lon="6.02469">
        <ele>987.7</ele>
        <time>2014-04-13T12:55:16Z</time>
      </trkpt>
      <trkpt lat="45.52796" lon="6.02443">
        <ele>967.56</ele>
        <time>2014-04-13T12:58:05Z</time>
      </trkpt>
      <trkpt lat="45.52798" lon="6.02417">
        <ele>973.76</ele>
        <time>2014-04-13T12:58:21Z</time>
      </trkpt>
      <trkpt lat="45.528" lon="6.0239">
        <ele>970.03</ele>
        <time>2014-04-13T12:58:36Z</time>
      </trkpt>
      <trkpt lat="45.52804" lon="6.02365">
        <ele>961.59</ele>
        <time>2014-04-13T12:58:54Z</time>
      </trkpt>
      <trkpt lat="45.52812" lon="6.02341">
        <ele>957.4</ele>
        <time>2014-04-13T12:59:08Z</time>
      </trkpt>
      <trkpt lat="45.52821" lon="6.02318">
        <ele>956.06</ele>
        <time>2014-04-13T12:59:23Z</time>
      </trkpt>
      <trkpt lat="45.52833" lon="6.02298">
        <ele>959.87</ele>
        <time>2014-04-13T12:59:39Z</time>
      </trkpt>
      <trkpt lat="45.5285" lon="6.02289">
        <ele>956.9</ele>
        <time>2014-04-13T12:59:54Z</time>
      </trkpt>
      <trkpt lat="45.52867" lon="6.02279">
        <ele>954.83</ele>
        <time>2014-04-13T13:00:19Z</time>
      </trkpt>
      <trkpt lat="45.52885" lon="6.02269">
        <ele>948.82</ele>
        <time>2014-04-13T13:00:32Z</time>
      </trkpt>
      <trkpt lat="45.52885" lon="6.02244">
        <ele>928.34</ele>
        <time>2014-04-13T13:01:28Z</time>
      </trkpt>
      <trkpt lat="45.52869" lon="6.0223">
        <ele>921.81</ele>
        <time>2014-04-13T13:01:49Z</time>
      </trkpt>
      <trkpt lat="45.52853" lon="6.02218">
        <ele>913.44</ele>
        <time>2014-04-13T13:02:11Z</time>
      </trkpt>
      <trkpt lat="45.52837" lon="6.02206">
        <ele>903.7</ele>
        <time>2014-04-13T13:02:25Z</time>
      </trkpt>
      <trkpt lat="45.52821" lon="6.02191">
        <ele>897.37</ele>
        <time>2014-04-13T13:02:43Z</time>
      </trkpt>
      <trkpt lat="45.52804" lon="6.02182">
        <ele>891.3</ele>
        <time>2014-04-13T13:02:57Z</time>
      </trkpt>
      <trkpt lat="45.52785" lon="6.02179">
        <ele>878.58</ele>
        <time>2014-04-13T13:03:13Z</time>
      </trkpt>
      <trkpt lat="45.52767" lon="6.02179">
        <ele>870.31</ele>
        <time>2014-04-13T13:03:30Z</time>
      </trkpt>
      <trkpt lat="45.52748" lon="6.02178">
        <ele>866.88</ele>
        <time>2014-04-13T13:04:16Z</time>
      </trkpt>
      <trkpt lat="45.52744" lon="6.02153">
        <ele>856.93</ele>
        <time>2014-04-13T13:04:51Z</time>
      </trkpt>
      <trkpt lat="45.52726" lon="6.02162">
        <ele>842.45</ele>
        <time>2014-04-13T13:05:44Z</time>
      </trkpt>
      <trkpt lat="45.52727" lon="6.02136">
        <ele>838.01</ele>
        <time>2014-04-13T13:06:02Z</time>
      </trkpt>
      <trkpt lat="45.52731" lon="6.0211">
        <ele>836.89</ele>
        <time>2014-04-13T13:06:21Z</time>
      </trkpt>
      <trkpt lat="45.52715" lon="6.02122">
        <ele>827.34</ele>
        <time>2014-04-13T13:06:52Z</time>
      </trkpt>
      <trkpt lat="45.527" lon="6.02137">
        <ele>823.44</ele>
        <time>2014-04-13T13:07:06Z</time>
      </trkpt>
      <trkpt lat="45.52686" lon="6.02156">
        <ele>821.49</ele>
        <time>2014-04-13T13:07:26Z</time>
      </trkpt>
      <trkpt lat="45.52669" lon="6.02166">
        <ele>818.71</ele>
        <time>2014-04-13T13:07:43Z</time>
      </trkpt>
      <trkpt lat="45.52652" lon="6.02176">
        <ele>813.25</ele>
        <time>2014-04-13T13:08:04Z</time>
      </trkpt>
      <trkpt lat="45.52634" lon="6.0217">
        <ele>805.58</ele>
        <time>2014-04-13T13:08:30Z</time>
      </trkpt>
      <trkpt lat="45.5263" lon="6.02145">
        <ele>808.8</ele>
        <time>2014-04-13T13:08:48Z</time>
      </trkpt>
      <trkpt lat="45.5263" lon="6.02118">
        <ele>793.51</ele>
        <time>2014-04-13T13:09:07Z</time>
      </trkpt>
      <trkpt lat="45.52612" lon="6.02113">
        <ele>773.26</ele>
        <time>2014-04-13T13:09:55Z</time>
      </trkpt>
      <trkpt lat="45.52596" lon="6.02125">
        <ele>766.13</ele>
        <time>2014-04-13T13:10:40Z</time>
      </trkpt>
      <trkpt lat="45.5258" lon="6.02139">
        <ele>754.57</ele>
        <time>2014-04-13T13:11:02Z</time>
      </trkpt>
      <trkpt lat="45.52565" lon="6.02154">
        <ele>747.72</ele>
        <time>2014-04-13T13:11:37Z</time>
      </trkpt>
      <trkpt lat="45.52547" lon="6.02147">
        <ele>751.05</ele>
        <time>2014-04-13T13:12:00Z</time>
      </trkpt>
      <trkpt lat="45.52529" lon="6.02146">
        <ele>745</ele>
        <time>2014-04-13T13:12:14Z</time>
      </trkpt>
      <trkpt lat="45.5251" lon="6.02146">
        <ele>738.87</ele>
        <time>2014-04-13T13:12:32Z</time>
      </trkpt>
      <trkpt lat="45.52492" lon="6.02142">
        <ele>735.59</ele>
        <time>2014-04-13T13:12:49Z</time>
      </trkpt>
      <trkpt lat="45.52473" lon="6.02147">
        <ele>727.83</ele>
        <time>2014-04-13T13:13:00Z</time>
      </trkpt>
      <trkpt lat="45.52455" lon="6.02153">
        <ele>724.06</ele>
        <time>2014-04-13T13:13:17Z</time>
      </trkpt>
      <trkpt lat="45.52439" lon="6.02165">
        <ele>711.9</ele>
        <time>2014-04-13T13:13:36Z</time>
      </trkpt>
      <trkpt lat="45.52428" lon="6.02144">
        <ele>706.64</ele>
        <time>2014-04-13T13:14:31Z</time>
      </trkpt>
      <trkpt lat="45.5241" lon="6.02151">
        <ele>694.07</ele>
        <time>2014-04-13T13:14:51Z</time>
      </trkpt>
      <trkpt lat="45.52398" lon="6.02171">
        <ele>681.74</ele>
        <time>2014-04-13T13:15:10Z</time>
      </trkpt>
      <trkpt lat="45.52394" lon="6.02146">
        <ele>694.03</ele>
        <time>2014-04-13T13:15:41Z</time>
      </trkpt>
      <trkpt lat="45.52376" lon="6.02149">
        <ele>665.96</ele>
        <time>2014-04-13T13:16:26Z</time>
      </trkpt>
      <trkpt lat="45.52369" lon="6.02125">
        <ele>674.34</ele>
        <time>2014-04-13T13:16:53Z</time>
      </trkpt>
      <trkpt lat="45.5237" lon="6.02099">
        <ele>672.85</ele>
        <time>2014-04-13T13:17:09Z</time>
      </trkpt>
      <trkpt lat="45.52359" lon="6.0212">
        <ele>648.24</ele>
        <time>2014-04-13T13:17:36Z</time>
      </trkpt>
      <trkpt lat="45.52356" lon="6.02094">
        <ele>653.04</ele>
        <time>2014-04-13T13:18:04Z</time>
      </trkpt>
      <trkpt lat="45.52357" lon="6.02067">
        <ele>651.87</ele>
        <time>2014-04-13T13:18:22Z</time>
      </trkpt>
      <trkpt lat="45.52374" lon="6.02057">
        <ele>633.43</ele>
        <time>2014-04-13T13:18:55Z</time>
      </trkpt>
      <trkpt lat="45.52368" lon="6.02032">
        <ele>619.99</ele>
        <time>2014-04-13T13:19:55Z</time>
      </trkpt>
      <trkpt lat="45.52375" lon="6.02008">
        <ele>608.98</ele>
        <time>2014-04-13T13:20:34Z</time>
      </trkpt>
      <trkpt lat="45.52388" lon="6.01989">
        <ele>606.21</ele>
        <time>2014-04-13T13:20:57Z</time>
      </trkpt>
      <trkpt lat="45.52375" lon="6.01969">
        <ele>592.19</ele>
        <time>2014-04-13T13:21:47Z</time>
      </trkpt>
      <trkpt lat="45.5236" lon="6.01956">
        <ele>566.71</ele>
        <time>2014-04-13T13:22:47Z</time>
      </trkpt>
      <trkpt lat="45.52366" lon="6.01931">
        <ele>567.23</ele>
        <time>2014-04-13T13:23:17Z</time>
      </trkpt>
      <trkpt lat="45.52372" lon="6.01906">
        <ele>550.82</ele>
        <time>2014-04-13T13:24:03Z</time>
      </trkpt>
      <trkpt lat="45.52359" lon="6.01887">
        <ele>525.57</ele>
        <time>2014-04-13T13:24:45Z</time>
      </trkpt>
      <trkpt lat="45.5236" lon="6.01861">
        <ele>518.48</ele>
        <time>2014-04-13T13:25:26Z</time>
      </trkpt>
      <trkpt lat="45.52362" lon="6.01835">
        <ele>506.81</ele>
        <time>2014-04-13T13:26:50Z</time>
      </trkpt>
      <trkpt lat="45.52367" lon="6.01811">
        <ele>492.85</ele>
        <time>2014-04-13T13:27:22Z</time>
      </trkpt>
      <trkpt lat="45.52358" lon="6.01788">
        <ele>479.58</ele>
        <time>2014-04-13T13:28:17Z</time>
      </trkpt>
      <trkpt lat="45.52348" lon="6.01766">
        <ele>473.02</ele>
        <time>2014-04-13T13:28:43Z</time>
      </trkpt>
      <trkpt lat="45.52353" lon="6.01741">
        <ele>461.86</ele>
        <time>2014-04-13T13:29:32Z</time>
      </trkpt>
      <trkpt lat="45.52361" lon="6.01717">
        <ele>455.88</ele>
        <time>2014-04-13T13:29:47Z</time>
      </trkpt>
      <trkpt lat="45.52368" lon="6.01694">
        <ele>448.68</ele>
        <time>2014-04-13T13:30:19Z</time>
      </trkpt>
      <trkpt lat="45.52378" lon="6.01672">
        <ele>439.47</ele>
        <time>2014-04-13T13:31:04Z</time>
      </trkpt>
      <trkpt lat="45.52383" lon="6.01646">
        <ele>433.56</ele>
        <time>2014-04-13T13:31:18Z</time>
      </trkpt>
      <trkpt lat="45.52384" lon="6.01619">
        <ele>427.55</ele>
        <time>2014-04-13T13:31:32Z</time>
      </trkpt>
      <trkpt lat="45.52384" lon="6.01593">
        <ele>422.12</ele>
        <time>2014-04-13T13:31:55Z</time>
      </trkpt>
      <trkpt lat="45.52389" lon="6.01567">
        <ele>416.45</ele>
        <time>2014-04-13T13:32:14Z</time>
      </trkpt>
      <trkpt lat="45.52398" lon="6.01543">
        <ele>409.42</ele>
        <time>2014-04-13T13:32:29Z</time>
      </trkpt>
      <trkpt lat="45.52406" lon="6.0152">
        <ele>403.96</ele>
        <time>2014-04-13T13:32:44Z</time>
      </trkpt>
      <trkpt lat="45.52423" lon="6.01512">
        <ele>400.93</ele>
        <time>2014-04-13T13:33:07Z</time>
      </trkpt>
      <trkpt lat="45.5243" lon="6.01488">
        <ele>396.11</ele>
        <time>2014-04-13T13:33:26Z</time>
      </trkpt>
      <trkpt lat="45.5243" lon="6.01462">
        <ele>391.75</ele>
        <time>2014-04-13T13:33:41Z</time>
      </trkpt>
      <trkpt lat="45.52426" lon="6.01435">
        <ele>387.51</ele>
        <time>2014-04-13T13:33:57Z</time>
      </trkpt>
      <trkpt lat="45.52419" lon="6.01411">
        <ele>384.61</ele>
        <time>2014-04-13T13:34:14Z</time>
      </trkpt>
      <trkpt lat="45.52408" lon="6.01391">
        <ele>381.88</ele>
        <time>2014-04-13T13:34:36Z</time>
      </trkpt>
      <trkpt lat="45.52389" lon="6.01393">
        <ele>379.49</ele>
        <time>2014-04-13T13:34:51Z</time>
      </trkpt>
      <trkpt lat="45.52373" lon="6.01383">
        <ele>377.14</ele>
        <time>2014-04-13T13:35:06Z</time>
      </trkpt>
      <trkpt lat="45.52361" lon="6.01362">
        <ele>376.11</ele>
        <time>2014-04-13T13:35:23Z</time>
      </trkpt>
      <trkpt lat="45.52348" lon="6.01342">
        <ele>374.73</ele>
        <time>2014-04-13T13:35:36Z</time>
      </trkpt>
      <trkpt lat="45.52331" lon="6.01353">
        <ele>373.86</ele>
        <time>2014-04-13T13:36:21Z</time>
      </trkpt>
      <trkpt lat="45.52315" lon="6.01366">
        <ele>376.19</ele>
        <time>2014-04-13T13:36:39Z</time>
      </trkpt>
      <trkpt lat="45.52299" lon="6.01378">
        <ele>377.54</ele>
        <time>2014-04-13T13:36:55Z</time>
      </trkpt>
      <trkpt lat="45.52283" lon="6.01392">
        <ele>377</ele>
        <time>2014-04-13T13:37:10Z</time>
      </trkpt>
      <trkpt lat="45.5227" lon="6.01409">
        <ele>379.53</ele>
        <time>2014-04-13T13:38:12Z</time>
      </trkpt>
      <trkpt lat="45.52261" lon="6.01432">
        <ele>382.3</ele>
        <time>2014-04-13T13:38:32Z</time>
      </trkpt>
      <trkpt lat="45.52251" lon="6.01454">
        <ele>381.99</ele>
        <time>2014-04-13T13:38:48Z</time>
      </trkpt>
      <trkpt lat="45.52241" lon="6.01476">
        <ele>382.37</ele>
        <time>2014-04-13T13:39:04Z</time>
      </trkpt>
      <trkpt lat="45.52233" lon="6.01499">
        <ele>382.38</ele>
        <time>2014-04-13T13:39:19Z</time>
      </trkpt>
      <trkpt lat="45.52225" lon="6.01523">
        <ele>382.92</ele>
        <time>2014-04-13T13:39:34Z</time>
      </trkpt>
      <trkpt lat="45.52217" lon="6.01548">
        <ele>383.41</ele>
        <time>2014-04-13T13:39:49Z</time>
      </trkpt>
      <trkpt lat="45.52209" lon="6.01572">
        <ele>386.49</ele>
        <time>2014-04-13T13:40:04Z</time>
      </trkpt>
      <trkpt lat="45.52194" lon="6.01588">
        <ele>386.46</ele>
        <time>2014-04-13T13:40:26Z</time>
      </trkpt>
      <trkpt lat="45.52176" lon="6.01581">
        <ele>384.23</ele>
        <time>2014-04-13T13:40:43Z</time>
      </trkpt>
      <trkpt lat="45.52159" lon="6.01572">
        <ele>381.95</ele>
        <time>2014-04-13T13:41:06Z</time>
      </trkpt>
      <trkpt lat="45.52141" lon="6.01572">
        <ele>379.79</ele>
        <time>2014-04-13T13:41:19Z</time>
      </trkpt>
      <trkpt lat="45.52123" lon="6.01573">
        <ele>377.43</ele>
        <time>2014-04-13T13:41:32Z</time>
      </trkpt>
      <trkpt lat="45.52104" lon="6.01575">
        <ele>376.29</ele>
        <time>2014-04-13T13:41:46Z</time>
      </trkpt>
      <trkpt lat="45.52085" lon="6.01581">
        <ele>377.75</ele>
        <time>2014-04-13T13:42:00Z</time>
      </trkpt>
      <trkpt lat="45.52067" lon="6.01591">
        <ele>378.62</ele>
        <time>2014-04-13T13:42:13Z</time>
      </trkpt>
      <trkpt lat="45.52049" lon="6.016">
        <ele>380</ele>
        <time>2014-04-13T13:42:25Z</time>
      </trkpt>
      <trkpt lat="45.52034" lon="6.01614">
        <ele>381.41</ele>
        <time>2014-04-13T13:42:39Z</time>
      </trkpt>
      <trkpt lat="45.5202" lon="6.0163">
        <ele>381.87</ele>
        <time>2014-04-13T13:42:53Z</time>
      </trkpt>
      <trkpt lat="45.52005" lon="6.01647">
        <ele>380.63</ele>
        <time>2014-04-13T13:43:07Z</time>
      </trkpt>
      <trkpt lat="45.51993" lon="6.01665">
        <ele>379.69</ele>
        <time>2014-04-13T13:43:22Z</time>
      </trkpt>
      <trkpt lat="45.51978" lon="6.0168">
        <ele>379.51</ele>
        <time>2014-04-13T13:43:36Z</time>
      </trkpt>
      <trkpt lat="45.51963" lon="6.01698">
        <ele>376.19</ele>
        <time>2014-04-13T13:43:51Z</time>
      </trkpt>
      <trkpt lat="45.51947" lon="6.01712">
        <ele>376.33</ele>
        <time>2014-04-13T13:44:04Z</time>
      </trkpt>
      <trkpt lat="45.51932" lon="6.01728">
        <ele>374.85</ele>
        <time>2014-04-13T13:44:19Z</time>
      </trkpt>
      <trkpt lat="45.51919" lon="6.01745">
        <ele>372.33</ele>
        <time>2014-04-13T13:44:32Z</time>
      </trkpt>
      <trkpt lat="45.51905" lon="6.01764">
        <ele>370.99</ele>
        <time>2014-04-13T13:44:47Z</time>
      </trkpt>
      <trkpt lat="45.51889" lon="6.01776">
        <ele>370.48</ele>
        <time>2014-04-13T13:45:00Z</time>
      </trkpt>
      <trkpt lat="45.51872" lon="6.01784">
        <ele>372.65</ele>
        <time>2014-04-13T13:45:15Z</time>
      </trkpt>
      <trkpt lat="45.51854" lon="6.01792">
        <ele>373.49</ele>
        <time>2014-04-13T13:45:30Z</time>
      </trkpt>
      <trkpt lat="45.51836" lon="6.01798">
        <ele>371.56</ele>
        <time>2014-04-13T13:45:44Z</time>
      </trkpt>
      <trkpt lat="45.51818" lon="6.01802">
        <ele>366.57</ele>
        <time>2014-04-13T13:45:58Z</time>
      </trkpt>
      <trkpt lat="45.518" lon="6.01808">
        <ele>365.26</ele>
        <time>2014-04-13T13:46:12Z</time>
      </trkpt>
      <trkpt lat="45.51783" lon="6.01817">
        <ele>361.03</ele>
        <time>2014-04-13T13:46:25Z</time>
      </trkpt>
      <trkpt lat="45.51765" lon="6.01827">
        <ele>357.91</ele>
        <time>2014-04-13T13:46:38Z</time>
      </trkpt>
      <trkpt lat="45.51748" lon="6.01836">
        <ele>351.53</ele>
        <time>2014-04-13T13:46:51Z</time>
      </trkpt>
      <trkpt lat="45.5173" lon="6.01842">
        <ele>349.46</ele>
        <time>2014-04-13T13:47:05Z</time>
      </trkpt>
      <trkpt lat="45.51714" lon="6.01829">
        <ele>344.62</ele>
        <time>2014-04-13T13:47:24Z</time>
      </trkpt>
      <trkpt lat="45.51696" lon="6.01824">
        <ele>341.19</ele>
        <time>2014-04-13T13:47:40Z</time>
      </trkpt>
      <trkpt lat="45.5168" lon="6.01812">
        <ele>340.39</ele>
        <time>2014-04-13T13:47:59Z</time>
      </trkpt>
      <trkpt lat="45.51662" lon="6.01818">
        <ele>336.32</ele>
        <time>2014-04-13T13:48:58Z</time>
      </trkpt>
      <trkpt lat="45.51646" lon="6.0183">
        <ele>335.45</ele>
        <time>2014-04-13T13:49:14Z</time>
      </trkpt>
      <trkpt lat="45.51628" lon="6.01835">
        <ele>338.59</ele>
        <time>2014-04-13T13:49:26Z</time>
      </trkpt>
      <trkpt lat="45.5161" lon="6.01843">
        <ele>339.18</ele>
        <time>2014-04-13T13:49:39Z</time>
      </trkpt>
      <trkpt lat="45.51595" lon="6.01856">
        <ele>340.59</ele>
        <time>2014-04-13T13:49:53Z</time>
      </trkpt>
      <trkpt lat="45.51577" lon="6.01866">
        <ele>340.81</ele>
        <time>2014-04-13T13:50:11Z</time>
      </trkpt>
      <trkpt lat="45.51559" lon="6.01873">
        <ele>338</ele>
        <time>2014-04-13T13:50:24Z</time>
      </trkpt>
      <trkpt lat="45.51541" lon="6.01881">
        <ele>336.31</ele>
        <time>2014-04-13T13:50:41Z</time>
      </trkpt>
      <trkpt lat="45.51523" lon="6.01891">
        <ele>337.53</ele>
        <time>2014-04-13T13:50:55Z</time>
      </trkpt>
      <trkpt lat="45.51508" lon="6.01907">
        <ele>332.86</ele>
        <time>2014-04-13T13:51:09Z</time>
      </trkpt>
      <trkpt lat="45.51495" lon="6.01925">
        <ele>327.47</ele>
        <time>2014-04-13T13:51:22Z</time>
      </trkpt>
      <trkpt lat="45.51481" lon="6.01943">
        <ele>323.53</ele>
        <time>2014-04-13T13:51:37Z</time>
      </trkpt>
      <trkpt lat="45.51463" lon="6.01954">
        <ele>322</ele>
        <time>2014-04-13T13:51:52Z</time>
      </trkpt>
      <trkpt lat="45.51446" lon="6.01966">
        <ele>322.14</ele>
        <time>2014-04-13T13:52:07Z</time>
      </trkpt>
      <trkpt lat="45.51429" lon="6.01978">
        <ele>320.75</ele>
        <time>2014-04-13T13:52:23Z</time>
      </trkpt>
      <trkpt lat="45.51412" lon="6.01989">
        <ele>320.35</ele>
        <time>2014-04-13T13:52:44Z</time>
      </trkpt>
      <trkpt lat="45.51395" lon="6.02002">
        <ele>318.72</ele>
        <time>2014-04-13T13:53:00Z</time>
      </trkpt>
      <trkpt lat="45.5138" lon="6.02015">
        <ele>318.17</ele>
        <time>2014-04-13T13:53:13Z</time>
      </trkpt>
      <trkpt lat="45.51364" lon="6.02028">
        <ele>316.69</ele>
        <time>2014-04-13T13:53:27Z</time>
      </trkpt>
      <trkpt lat="45.51349" lon="6.02045">
        <ele>314.25</ele>
        <time>2014-04-13T13:53:41Z</time>
      </trkpt>
      <trkpt lat="45.51336" lon="6.02064">
        <ele>313.97</ele>
        <time>2014-04-13T13:53:57Z</time>
      </trkpt>
      <trkpt lat="45.51325" lon="6.02084">
        <ele>313.88</ele>
        <time>2014-04-13T13:54:15Z</time>
      </trkpt>
      <trkpt lat="45.51314" lon="6.02105">
        <ele>313.54</ele>
        <time>2014-04-13T13:54:30Z</time>
      </trkpt>
      <trkpt lat="45.51303" lon="6.02128">
        <ele>315.62</ele>
        <time>2014-04-13T13:54:44Z</time>
      </trkpt>
      <trkpt lat="45.51294" lon="6.02152">
        <ele>315.11</ele>
        <time>2014-04-13T13:54:59Z</time>
      </trkpt>
      <trkpt lat="45.51285" lon="6.02174">
        <ele>317.73</ele>
        <time>2014-04-13T13:55:13Z</time>
      </trkpt>
      <trkpt lat="45.51273" lon="6.02194">
        <ele>317.53</ele>
        <time>2014-04-13T13:55:27Z</time>
      </trkpt>
      <trkpt lat="45.51259" lon="6.02213">
        <ele>316.59</ele>
        <time>2014-04-13T13:55:42Z</time>
      </trkpt>
      <trkpt lat="45.51246" lon="6.02232">
        <ele>316.78</ele>
        <time>2014-04-13T13:55:57Z</time>
      </trkpt>
      <trkpt lat="45.51231" lon="6.02249">
        <ele>315.34</ele>
        <time>2014-04-13T13:56:12Z</time>
      </trkpt>
      <trkpt lat="45.51218" lon="6.02266">
        <ele>314.55</ele>
        <time>2014-04-13T13:56:25Z</time>
      </trkpt>
      <trkpt lat="45.51203" lon="6.02282">
        <ele>312.17</ele>
        <time>2014-04-13T13:56:40Z</time>
      </trkpt>
      <trkpt lat="45.5119" lon="6.02301">
        <ele>312.81</ele>
        <time>2014-04-13T13:56:56Z</time>
      </trkpt>
      <trkpt lat="45.51177" lon="6.02321">
        <ele>314.08</ele>
        <time>2014-04-13T13:57:10Z</time>
      </trkpt>
      <trkpt lat="45.51164" lon="6.0234">
        <ele>314.73</ele>
        <time>2014-04-13T13:57:25Z</time>
      </trkpt>
      <trkpt lat="45.51151" lon="6.02359">
        <ele>315.74</ele>
        <time>2014-04-13T13:57:40Z</time>
      </trkpt>
      <trkpt lat="45.51137" lon="6.02377">
        <ele>316.95</ele>
        <time>2014-04-13T13:57:55Z</time>
      </trkpt>
      <trkpt lat="45.51123" lon="6.02396">
        <ele>317.12</ele>
        <time>2014-04-13T13:58:10Z</time>
      </trkpt>
      <trkpt lat="45.51108" lon="6.02412">
        <ele>318.97</ele>
        <time>2014-04-13T13:58:29Z</time>
      </trkpt>
      <trkpt lat="45.51093" lon="6.02426">
        <ele>321.85</ele>
        <time>2014-04-13T13:58:52Z</time>
      </trkpt>
      <trkpt lat="45.51079" lon="6.02446">
        <ele>322.74</ele>
        <time>2014-04-13T13:59:05Z</time>
      </trkpt>
      <trkpt lat="45.51068" lon="6.02466">
        <ele>322.75</ele>
        <time>2014-04-13T13:59:19Z</time>
      </trkpt>
      <trkpt lat="45.51054" lon="6.02486">
        <ele>323.64</ele>
        <time>2014-04-13T13:59:34Z</time>
      </trkpt>
      <trkpt lat="45.5104" lon="6.02503">
        <ele>324.82</ele>
        <time>2014-04-13T14:00:01Z</time>
      </trkpt>
      <trkpt lat="45.51025" lon="6.02519">
        <ele>322.62</ele>
        <time>2014-04-13T14:00:20Z</time>
      </trkpt>
      <trkpt lat="45.51011" lon="6.02536">
        <ele>324.07</ele>
        <time>2014-04-13T14:00:33Z</time>
      </trkpt>
      <trkpt lat="45.51001" lon="6.02559">
        <ele>324.38</ele>
        <time>2014-04-13T14:00:48Z</time>
      </trkpt>
      <trkpt lat="45.50996" lon="6.02586">
        <ele>324.21</ele>
        <time>2014-04-13T14:01:03Z</time>
      </trkpt>
      <trkpt lat="45.50989" lon="6.0261">
        <ele>326.3</ele>
        <time>2014-04-13T14:01:18Z</time>
      </trkpt>
      <trkpt lat="45.50982" lon="6.02634">
        <ele>327.04</ele>
        <time>2014-04-13T14:01:33Z</time>
      </trkpt>
      <trkpt lat="45.50973" lon="6.02656">
        <ele>331.32</ele>
        <time>2014-04-13T14:01:49Z</time>
      </trkpt>
      <trkpt lat="45.50966" lon="6.02681">
        <ele>330.55</ele>
        <time>2014-04-13T14:02:05Z</time>
      </trkpt>
      <trkpt lat="45.50959" lon="6.02706">
        <ele>330.11</ele>
        <time>2014-04-13T14:02:21Z</time>
      </trkpt>
      <trkpt lat="45.50952" lon="6.02729">
        <ele>332.97</ele>
        <time>2014-04-13T14:02:36Z</time>
      </trkpt>
      <trkpt lat="45.50936" lon="6.02743">
        <ele>335.42</ele>
        <time>2014-04-13T14:02:51Z</time>
      </trkpt>
      <trkpt lat="45.50922" lon="6.02762">
        <ele>330</ele>
        <time>2014-04-13T14:03:04Z</time>
      </trkpt>
      <trkpt lat="45.50907" lon="6.02776">
        <ele>329.28</ele>
        <time>2014-04-13T14:03:19Z</time>
      </trkpt>
      <trkpt lat="45.50892" lon="6.02791">
        <ele>323.32</ele>
        <time>2014-04-13T14:03:32Z</time>
      </trkpt>
      <trkpt lat="45.50884" lon="6.02815">
        <ele>318.7</ele>
        <time>2014-04-13T14:03:43Z</time>
      </trkpt>
      <trkpt lat="45.50873" lon="6.02838">
        <ele>318.94</ele>
        <time>2014-04-13T14:03:59Z</time>
      </trkpt>
      <trkpt lat="45.50863" lon="6.0286">
        <ele>316.35</ele>
        <time>2014-04-13T14:04:12Z</time>
      </trkpt>
      <trkpt lat="45.50856" lon="6.02885">
        <ele>316.72</ele>
        <time>2014-04-13T14:04:26Z</time>
      </trkpt>
      <trkpt lat="45.50849" lon="6.0291">
        <ele>316.53</ele>
        <time>2014-04-13T14:04:40Z</time>
      </trkpt>
      <trkpt lat="45.50845" lon="6.02936">
        <ele>319.82</ele>
        <time>2014-04-13T14:04:57Z</time>
      </trkpt>
      <trkpt lat="45.5083" lon="6.0295">
        <ele>319.15</ele>
        <time>2014-04-13T14:05:12Z</time>
      </trkpt>
      <trkpt lat="45.50814" lon="6.02964">
        <ele>318.73</ele>
        <time>2014-04-13T14:05:26Z</time>
      </trkpt>
      <trkpt lat="45.50798" lon="6.02977">
        <ele>318.48</ele>
        <time>2014-04-13T14:05:41Z</time>
      </trkpt>
      <trkpt lat="45.50783" lon="6.02993">
        <ele>316.86</ele>
        <time>2014-04-13T14:05:54Z</time>
      </trkpt>
      <trkpt lat="45.50767" lon="6.03006">
        <ele>311.7</ele>
        <time>2014-04-13T14:06:06Z</time>
      </trkpt>
      <trkpt lat="45.50752" lon="6.03022">
        <ele>312.08</ele>
        <time>2014-04-13T14:06:20Z</time>
      </trkpt>
      <trkpt lat="45.50736" lon="6.03038">
        <ele>306.78</ele>
        <time>2014-04-13T14:06:34Z</time>
      </trkpt>
      <trkpt lat="45.50724" lon="6.03057">
        <ele>309.95</ele>
        <time>2014-04-13T14:06:49Z</time>
      </trkpt>
      <trkpt lat="45.50709" lon="6.03073">
        <ele>307.27</ele>
        <time>2014-04-13T14:07:04Z</time>
      </trkpt>
      <trkpt lat="45.50693" lon="6.03087">
        <ele>303.9</ele>
        <time>2014-04-13T14:07:18Z</time>
      </trkpt>
      <trkpt lat="45.50678" lon="6.03104">
        <ele>299.66</ele>
        <time>2014-04-13T14:07:32Z</time>
      </trkpt>
      <trkpt lat="45.50661" lon="6.03114">
        <ele>293</ele>
        <time>2014-04-13T14:07:44Z</time>
      </trkpt>
      <trkpt lat="45.50642" lon="6.03118">
        <ele>288.84</ele>
        <time>2014-04-13T14:07:58Z</time>
      </trkpt>
      <trkpt lat="45.50628" lon="6.03137">
        <ele>289.43</ele>
        <time>2014-04-13T14:08:11Z</time>
      </trkpt>
      <trkpt lat="45.50624" lon="6.03163">
        <ele>285.19</ele>
        <time>2014-04-13T14:08:24Z</time>
      </trkpt>
      <trkpt lat="45.5062" lon="6.03188">
        <ele>286.85</ele>
        <time>2014-04-13T14:08:38Z</time>
      </trkpt>
      <trkpt lat="45.50619" lon="6.03214">
        <ele>282.71</ele>
        <time>2014-04-13T14:08:51Z</time>
      </trkpt>
      <trkpt lat="45.50619" lon="6.0324">
        <ele>283.03</ele>
        <time>2014-04-13T14:09:05Z</time>
      </trkpt>
      <trkpt lat="45.50619" lon="6.03266">
        <ele>285.66</ele>
        <time>2014-04-13T14:09:19Z</time>
      </trkpt>
      <trkpt lat="45.50618" lon="6.03292">
        <ele>287.96</ele>
        <time>2014-04-13T14:09:34Z</time>
      </trkpt>
      <trkpt lat="45.50616" lon="6.0332">
        <ele>287.3</ele>
        <time>2014-04-13T14:09:49Z</time>
      </trkpt>
      <trkpt lat="45.50619" lon="6.03347">
        <ele>286.41</ele>
        <time>2014-04-13T14:10:03Z</time>
      </trkpt>
      <trkpt lat="45.50619" lon="6.03373">
        <ele>286.12</ele>
        <time>2014-04-13T14:10:17Z</time>
      </trkpt>
      <trkpt lat="45.50617" lon="6.03399">
        <ele>291.33</ele>
        <time>2014-04-13T14:10:33Z</time>
      </trkpt>
      <trkpt lat="45.50615" lon="6.03424">
        <ele>293.16</ele>
        <time>2014-04-13T14:10:47Z</time>
      </trkpt>
      <trkpt lat="45.50613" lon="6.03451">
        <ele>290.52</ele>
        <time>2014-04-13T14:11:00Z</time>
      </trkpt>
      <trkpt lat="45.50608" lon="6.03476">
        <ele>288.26</ele>
        <time>2014-04-13T14:11:14Z</time>
      </trkpt>
      <trkpt lat="45.50599" lon="6.03499">
        <ele>289.51</ele>
        <time>2014-04-13T14:11:28Z</time>
      </trkpt>
      <trkpt lat="45.50593" lon="6.03523">
        <ele>292.83</ele>
        <time>2014-04-13T14:11:43Z</time>
      </trkpt>
      <trkpt lat="45.50581" lon="6.03544">
        <ele>296.71</ele>
        <time>2014-04-13T14:12:00Z</time>
      </trkpt>
      <trkpt lat="45.50574" lon="6.0357">
        <ele>295.67</ele>
        <time>2014-04-13T14:12:14Z</time>
      </trkpt>
      <trkpt lat="45.50564" lon="6.03593">
        <ele>297.19</ele>
        <time>2014-04-13T14:12:29Z</time>
      </trkpt>
      <trkpt lat="45.50557" lon="6.03617">
        <ele>294.24</ele>
        <time>2014-04-13T14:12:42Z</time>
      </trkpt>
      <trkpt lat="45.50553" lon="6.03642">
        <ele>294.33</ele>
        <time>2014-04-13T14:12:56Z</time>
      </trkpt>
      <trkpt lat="45.50547" lon="6.03668">
        <ele>295.78</ele>
        <time>2014-04-13T14:13:10Z</time>
      </trkpt>
      <trkpt lat="45.50543" lon="6.03694">
        <ele>295.6</ele>
        <time>2014-04-13T14:13:23Z</time>
      </trkpt>
      <trkpt lat="45.50536" lon="6.03718">
        <ele>299.22</ele>
        <time>2014-04-13T14:13:38Z</time>
      </trkpt>
      <trkpt lat="45.50535" lon="6.03745">
        <ele>298.93</ele>
        <time>2014-04-13T14:13:52Z</time>
      </trkpt>
      <trkpt lat="45.5053" lon="6.0377">
        <ele>296.18</ele>
        <time>2014-04-13T14:14:06Z</time>
      </trkpt>
      <trkpt lat="45.50525" lon="6.03794">
        <ele>296.02</ele>
        <time>2014-04-13T14:14:20Z</time>
      </trkpt>
      <trkpt lat="45.50518" lon="6.03818">
        <ele>295.71</ele>
        <time>2014-04-13T14:14:32Z</time>
      </trkpt>
      <trkpt lat="45.5051" lon="6.03842">
        <ele>295.39</ele>
        <time>2014-04-13T14:14:46Z</time>
      </trkpt>
      <trkpt lat="45.50501" lon="6.03866">
        <ele>298.6</ele>
        <time>2014-04-13T14:15:02Z</time>
      </trkpt>
      <trkpt lat="45.50491" lon="6.03887">
        <ele>296.53</ele>
        <time>2014-04-13T14:15:17Z</time>
      </trkpt>
      <trkpt lat="45.50482" lon="6.03911">
        <ele>292.81</ele>
        <time>2014-04-13T14:15:32Z</time>
      </trkpt>
      <trkpt lat="45.50474" lon="6.03936">
        <ele>290.8</ele>
        <time>2014-04-13T14:15:48Z</time>
      </trkpt>
      <trkpt lat="45.50457" lon="6.03948">
        <ele>294.69</ele>
        <time>2014-04-13T14:16:00Z</time>
      </trkpt>
      <trkpt lat="45.50447" lon="6.03972">
        <ele>295.63</ele>
        <time>2014-04-13T14:16:13Z</time>
      </trkpt>
      <trkpt lat="45.50441" lon="6.03997">
        <ele>299.19</ele>
        <time>2014-04-13T14:16:32Z</time>
      </trkpt>
      <trkpt lat="45.50432" lon="6.0402">
        <ele>298.2</ele>
        <time>2014-04-13T14:16:47Z</time>
      </trkpt>
      <trkpt lat="45.50424" lon="6.04044">
        <ele>295.58</ele>
        <time>2014-04-13T14:17:01Z</time>
      </trkpt>
      <trkpt lat="45.50424" lon="6.0407">
        <ele>284.3</ele>
        <time>2014-04-13T14:17:21Z</time>
      </trkpt>
      <trkpt lat="45.50414" lon="6.04093">
        <ele>286.6</ele>
        <time>2014-04-13T14:17:37Z</time>
      </trkpt>
      <trkpt lat="45.50405" lon="6.04117">
        <ele>288.51</ele>
        <time>2014-04-13T14:17:52Z</time>
      </trkpt>
      <trkpt lat="45.50398" lon="6.04142">
        <ele>288.67</ele>
        <time>2014-04-13T14:18:06Z</time>
      </trkpt>
      <trkpt lat="45.5039" lon="6.04165">
        <ele>287.74</ele>
        <time>2014-04-13T14:18:20Z</time>
      </trkpt>
      <trkpt lat="45.50382" lon="6.0419">
        <ele>287.14</ele>
        <time>2014-04-13T14:18:34Z</time>
      </trkpt>
      <trkpt lat="45.50376" lon="6.04214">
        <ele>286.28</ele>
        <time>2014-04-13T14:18:48Z</time>
      </trkpt>
      <trkpt lat="45.50368" lon="6.04239">
        <ele>285.81</ele>
        <time>2014-04-13T14:19:03Z</time>
      </trkpt>
      <trkpt lat="45.5036" lon="6.04263">
        <ele>285.66</ele>
        <time>2014-04-13T14:19:17Z</time>
      </trkpt>
      <trkpt lat="45.50352" lon="6.04286">
        <ele>285.47</ele>
        <time>2014-04-13T14:19:31Z</time>
      </trkpt>
      <trkpt lat="45.50343" lon="6.0431">
        <ele>286.92</ele>
        <time>2014-04-13T14:19:45Z</time>
      </trkpt>
      <trkpt lat="45.50335" lon="6.04334">
        <ele>289.79</ele>
        <time>2014-04-13T14:20:00Z</time>
      </trkpt>
      <trkpt lat="45.50327" lon="6.04357">
        <ele>291.61</ele>
        <time>2014-04-13T14:20:14Z</time>
      </trkpt>
      <trkpt lat="45.50321" lon="6.04383">
        <ele>294.18</ele>
        <time>2014-04-13T14:20:29Z</time>
      </trkpt>
      <trkpt lat="45.50317" lon="6.04409">
        <ele>296.75</ele>
        <time>2014-04-13T14:20:48Z</time>
      </trkpt>
      <trkpt lat="45.50311" lon="6.04434">
        <ele>302.66</ele>
        <time>2014-04-13T14:21:04Z</time>
      </trkpt>
      <trkpt lat="45.50308" lon="6.0446">
        <ele>302.47</ele>
        <time>2014-04-13T14:21:18Z</time>
      </trkpt>
      <trkpt lat="45.50304" lon="6.04487">
        <ele>304.55</ele>
        <time>2014-04-13T14:21:33Z</time>
      </trkpt>
      <trkpt lat="45.50302" lon="6.04513">
        <ele>303.08</ele>
        <time>2014-04-13T14:21:46Z</time>
      </trkpt>
      <trkpt lat="45.50301" lon="6.0454">
        <ele>300.55</ele>
        <time>2014-04-13T14:21:58Z</time>
      </trkpt>
      <trkpt lat="45.50301" lon="6.04567">
        <ele>298.91</ele>
        <time>2014-04-13T14:22:10Z</time>
      </trkpt>
      <trkpt lat="45.50301" lon="6.04593">
        <ele>297.08</ele>
        <time>2014-04-13T14:22:23Z</time>
      </trkpt>
      <trkpt lat="45.50302" lon="6.0462">
        <ele>293.95</ele>
        <time>2014-04-13T14:22:35Z</time>
      </trkpt>
      <trkpt lat="45.50303" lon="6.04647">
        <ele>292.27</ele>
        <time>2014-04-13T14:22:48Z</time>
      </trkpt>
      <trkpt lat="45.50304" lon="6.04672">
        <ele>292.35</ele>
        <time>2014-04-13T14:23:01Z</time>
      </trkpt>
      <trkpt lat="45.50305" lon="6.04698">
        <ele>292.96</ele>
        <time>2014-04-13T14:23:14Z</time>
      </trkpt>
      <trkpt lat="45.50307" lon="6.04725">
        <ele>293.06</ele>
        <time>2014-04-13T14:23:27Z</time>
      </trkpt>
      <trkpt lat="45.50309" lon="6.04752">
        <ele>294.25</ele>
        <time>2014-04-13T14:23:41Z</time>
      </trkpt>
      <trkpt lat="45.50312" lon="6.04779">
        <ele>293.33</ele>
        <time>2014-04-13T14:23:54Z</time>
      </trkpt>
      <trkpt lat="45.50315" lon="6.04805">
        <ele>293.03</ele>
        <time>2014-04-13T14:24:07Z</time>
      </trkpt>
      <trkpt lat="45.5032" lon="6.04831">
        <ele>293.07</ele>
        <time>2014-04-13T14:24:21Z</time>
      </trkpt>
      <trkpt lat="45.50325" lon="6.04856">
        <ele>293.78</ele>
        <time>2014-04-13T14:24:34Z</time>
      </trkpt>
      <trkpt lat="45.50329" lon="6.04881">
        <ele>294.92</ele>
        <time>2014-04-13T14:24:48Z</time>
      </trkpt>
      <trkpt lat="45.50334" lon="6.04907">
        <ele>295.78</ele>
        <time>2014-04-13T14:25:02Z</time>
      </trkpt>
      <trkpt lat="45.5034" lon="6.04932">
        <ele>297.39</ele>
        <time>2014-04-13T14:25:17Z</time>
      </trkpt>
      <trkpt lat="45.50346" lon="6.04957">
        <ele>295.03</ele>
        <time>2014-04-13T14:25:30Z</time>
      </trkpt>
      <trkpt lat="45.5035" lon="6.04982">
        <ele>290.78</ele>
        <time>2014-04-13T14:25:42Z</time>
      </trkpt>
      <trkpt lat="45.50358" lon="6.05006">
        <ele>290.8</ele>
        <time>2014-04-13T14:25:55Z</time>
      </trkpt>
      <trkpt lat="45.50367" lon="6.0503">
        <ele>290.3</ele>
        <time>2014-04-13T14:26:08Z</time>
      </trkpt>
      <trkpt lat="45.50374" lon="6.05056">
        <ele>288.72</ele>
        <time>2014-04-13T14:26:21Z</time>
      </trkpt>
      <trkpt lat="45.50382" lon="6.0508">
        <ele>290.29</ele>
        <time>2014-04-13T14:26:35Z</time>
      </trkpt>
      <trkpt lat="45.50392" lon="6.05103">
        <ele>291.29</ele>
        <time>2014-04-13T14:26:50Z</time>
      </trkpt>
      <trkpt lat="45.504" lon="6.05126">
        <ele>291.03</ele>
        <time>2014-04-13T14:27:04Z</time>
      </trkpt>
      <trkpt lat="45.50416" lon="6.05141">
        <ele>291.84</ele>
        <time>2014-04-13T14:27:18Z</time>
      </trkpt>
      <trkpt lat="45.50434" lon="6.0515">
        <ele>290.82</ele>
        <time>2014-04-13T14:27:32Z</time>
      </trkpt>
      <trkpt lat="45.50452" lon="6.05155">
        <ele>288.96</ele>
        <time>2014-04-13T14:27:45Z</time>
      </trkpt>
    </trkseg>
  </trk>
</gpx>